Observation data for Palo Duro Reservoir 1NW on 01/18/2019      Previous  Date  Next       Current Mesonet Observations  Soil Data  Daily Summary Page  Observations in Plain Language
KPD4 180600Z 19016KT 08/M01 A2988 RMK A01 T00751007  RH  056%=      5-min Rain = 0
KPD4 180601Z 19014KT 08/M01 A2988 RMK A01 T00751007  RH  056%=      5-min Rain = 0
KPD4 180602Z 19014KT 07/M01 A2988 RMK A01 T00741007  RH  056%=      5-min Rain = 0
KPD4 180603Z 19013KT 07/M01 A2988 RMK A01 T00741007  RH  057%=      5-min Rain = 0
KPD4 180604Z 18011KT 07/M01 A2988 RMK A01 T00721007  RH  057%=      5-min Rain = 0
KPD4 180605Z 18011KT 07/M01 A2988 RMK A01 T00701008  RH  057%=      5-min Rain = 0
KPD4 180606Z 18012KT 07/M01 A2988 RMK A01 T00671009  RH  058%=      5-min Rain = 0
KPD4 180607Z 18012KT 07/M01 A2988 RMK A01 T00651009  RH  059%=      5-min Rain = 0
KPD4 180608Z 18012KT 06/M01 A2988 RMK A01 T00621009  RH  060%=      5-min Rain = 0
KPD4 180609Z 18013KT 06/M01 A2988 RMK A01 T00611008  RH  061%=      5-min Rain = 0
KPD4 180610Z 18013KT 06/M01 A2988 RMK A01 T00611006  RH  062%=      5-min Rain = 0
KPD4 180611Z 18013KT 06/M01 A2988 RMK A01 T00611005  RH  063%=      5-min Rain = 0
KPD4 180612Z 18012KT 06/M01 A2988 RMK A01 T00601005  RH  063%=      5-min Rain = 0
KPD4 180613Z 18013KT 06/M01 A2988 RMK A01 T00591005  RH  064%=      5-min Rain = 0
KPD4 180614Z 18013KT 06/M01 A2987 RMK A01 T00581005  RH  064%=      5-min Rain = 0
KPD4 180615Z 18012KT 06/M01 A2987 RMK A01 T00571005  RH  064%=      5-min Rain = 0
KPD4 180616Z 18013KT 06/M01 A2987 RMK A01 T00571005  RH  065%=      5-min Rain = 0
KPD4 180617Z 18012KT 06/M01 A2987 RMK A01 T00571005  RH  065%=      5-min Rain = 0
KPD4 180618Z 18013KT 06/M01 A2987 RMK A01 T00571005  RH  064%=      5-min Rain = 0
KPD4 180619Z 18014KT 06/M01 A2987 RMK A01 T00571005  RH  064%=      5-min Rain = 0
KPD4 180620Z 18014KT 06/M01 A2987 RMK A01 T00571005  RH  064%=      5-min Rain = 0
KPD4 180621Z 18014KT 06/M00 A2987 RMK A01 T00581004  RH  064%=      5-min Rain = 0
KPD4 180622Z 18013KT 06/M00 A2987 RMK A01 T00581004  RH  064%=      5-min Rain = 0
KPD4 180623Z 18013KT 06/M00 A2986 RMK A01 T00581004  RH  064%=      5-min Rain = 0
KPD4 180624Z 18015KT 06/M00 A2986 RMK A01 T00581004  RH  064%=      5-min Rain = 0
KPD4 180625Z 18016KT 06/M00 A2986 RMK A01 T00581004  RH  064%=      5-min Rain = 0
KPD4 180626Z 18015KT 06/M00 A2986 RMK A01 T00591003  RH  064%=      5-min Rain = 0
KPD4 180627Z 18016KT 06/M00 A2986 RMK A01 T00591003  RH  064%=      5-min Rain = 0
KPD4 180628Z 18015KT 06/M00 A2985 RMK A01 T00601003  RH  064%=      5-min Rain = 0
KPD4 180629Z 18016KT 06/M00 A2985 RMK A01 T00591003  RH  064%=      5-min Rain = 0
KPD4 180630Z 18016KT 06/M00 A2985 RMK A01 T00601003  RH  064%=      5-min Rain = 0
KPD4 180631Z 18015KT 06/M00 A2985 RMK A01 T00601002  RH  064%=      5-min Rain = 0
KPD4 180632Z 19014KT 06/M00 A2985 RMK A01 T00591003  RH  064%=      5-min Rain = 0
KPD4 180633Z 19014KT 06/M00 A2985 RMK A01 T00591003  RH  065%=      5-min Rain = 0
KPD4 180634Z 19013KT 06/M00 A2985 RMK A01 T00581003  RH  065%=      5-min Rain = 0
KPD4 180635Z 19013KT 06/M00 A2986 RMK A01 T00571003  RH  065%=      5-min Rain = 0
KPD4 180636Z 19012KT 06/M00 A2986 RMK A01 T00561003  RH  066%=      5-min Rain = 0
KPD4 180637Z 19012KT 06/M00 A2986 RMK A01 T00561003  RH  066%=      5-min Rain = 0
KPD4 180638Z 19012KT 06/M00 A2986 RMK A01 T00561003  RH  066%=      5-min Rain = 0
KPD4 180639Z 19013KT 06/M00 A2986 RMK A01 T00561004  RH  065%=      5-min Rain = 0
KPD4 180640Z 19010KT 06/M00 A2986 RMK A01 T00561004  RH  065%=      5-min Rain = 0
KPD4 180641Z 19011KT 06/M01 A2985 RMK A01 T00571005  RH  065%=      5-min Rain = 0
KPD4 180642Z 19011KT 06/M01 A2985 RMK A01 T00571005  RH  064%=      5-min Rain = 0
KPD4 180643Z 19011KT 06/M01 A2985 RMK A01 T00571005  RH  064%=      5-min Rain = 0
KPD4 180644Z 18012KT 06/M01 A2985 RMK A01 T00571006  RH  064%=      5-min Rain = 0
KPD4 180645Z 19012KT 06/M01 A2985 RMK A01 T00571006  RH  064%=      5-min Rain = 0
KPD4 180646Z 18013KT 06/M01 A2985 RMK A01 T00571007  RH  064%=      5-min Rain = 0
KPD4 180647Z 19012KT 06/M01 A2985 RMK A01 T00581007  RH  063%=      5-min Rain = 0
KPD4 180648Z 19014KT 06/M01 A2985 RMK A01 T00591007  RH  063%=      5-min Rain = 0
KPD4 180649Z 19014KT 06/M01 A2985 RMK A01 T00611008  RH  061%=      5-min Rain = 0
KPD4 180650Z 19012KT 06/M01 A2985 RMK A01 T00641008  RH  060%=      5-min Rain = 0
KPD4 180651Z 19015KT 07/M01 A2985 RMK A01 T00651009  RH  059%=      5-min Rain = 0
KPD4 180652Z 18012KT 07/M01 A2985 RMK A01 T00661009  RH  059%=      5-min Rain = 0
KPD4 180653Z 19014KT 07/M01 A2984 RMK A01 T00671009  RH  058%=      5-min Rain = 0
KPD4 180654Z 19013KT 07/M01 A2984 RMK A01 T00671009  RH  058%=      5-min Rain = 0
KPD4 180655Z 19013KT 07/M01 A2984 RMK A01 T00681010  RH  058%=      5-min Rain = 0
KPD4 180656Z 19013KT 07/M01 A2984 RMK A01 T00681010  RH  058%=      5-min Rain = 0
KPD4 180657Z 19013KT 07/M01 A2984 RMK A01 T00681010  RH  058%=      5-min Rain = 0
KPD4 180658Z 19014KT 07/M01 A2984 RMK A01 T00681010  RH  058%=      5-min Rain = 0
KPD4 180659Z 19014KT 07/M01 A2984 RMK A01 T00691010  RH  057%=      5-min Rain = 0
KPD4 180700Z 19014KT 07/M01 A2984 RMK A01 T00701010  RH  057%=      5-min Rain = 0
KPD4 180701Z 19012KT 07/M01 A2984 RMK A01 T00711010  RH  056%=      5-min Rain = 0
KPD4 180702Z 19012KT 07/M01 A2983 RMK A01 T00701011  RH  056%=      5-min Rain = 0
KPD4 180703Z 19013KT 07/M01 A2983 RMK A01 T00691011  RH  057%=      5-min Rain = 0
KPD4 180704Z 19013KT 07/M01 A2983 RMK A01 T00691012  RH  057%=      5-min Rain = 0
KPD4 180705Z 19014KT 07/M01 A2983 RMK A01 T00691012  RH  056%=      5-min Rain = 0
KPD4 180706Z 19015KT 07/M01 A2983 RMK A01 T00711013  RH  055%=      5-min Rain = 0
KPD4 180707Z 19017KT 07/M01 A2983 RMK A01 T00731013  RH  054%=      5-min Rain = 0
KPD4 180708Z 19015KT 08/M01 A2983 RMK A01 T00751013  RH  053%=      5-min Rain = 0
KPD4 180709Z 20015KT 08/M01 A2982 RMK A01 T00761014  RH  053%=      5-min Rain = 0
KPD4 180710Z 20019KT 08/M02 A2982 RMK A01 T00771015  RH  052%=      5-min Rain = 0
KPD4 180711Z 19018KT 08/M02 A2982 RMK A01 T00791015  RH  052%=      5-min Rain = 0
KPD4 180712Z 19016KT 08/M02 A2982 RMK A01 T00801015  RH  051%=      5-min Rain = 0
KPD4 180713Z 20017KT 08/M02 A2982 RMK A01 T00801015  RH  051%=      5-min Rain = 0
KPD4 180714Z 19017KT 08/M02 A2982 RMK A01 T00801015  RH  051%=      5-min Rain = 0
KPD4 180715Z 20018KT 08/M02 A2982 RMK A01 T00801016  RH  051%=      5-min Rain = 0
KPD4 180716Z 20016KT 08/M02 A2982 RMK A01 T00801016  RH  051%=      5-min Rain = 0
KPD4 180717Z 20016KT 08/M02 A2982 RMK A01 T00801017  RH  051%=      5-min Rain = 0
KPD4 180718Z 20014KT 08/M02 A2982 RMK A01 T00801016  RH  051%=      5-min Rain = 0
KPD4 180719Z 19015KT 08/M02 A2982 RMK A01 T00791017  RH  051%=      5-min Rain = 0
KPD4 180720Z 20014KT 08/M02 A2982 RMK A01 T00781017  RH  051%=      5-min Rain = 0
KPD4 180721Z 20013KT 08/M02 A2982 RMK A01 T00781017  RH  051%=      5-min Rain = 0
KPD4 180722Z 20014KT 08/M02 A2982 RMK A01 T00771017  RH  051%=      5-min Rain = 0
KPD4 180723Z 20013KT 08/M02 A2982 RMK A01 T00771017  RH  051%=      5-min Rain = 0
KPD4 180724Z 20012KT 08/M02 A2982 RMK A01 T00761018  RH  051%=      5-min Rain = 0
KPD4 180725Z 20012KT 08/M02 A2982 RMK A01 T00761018  RH  052%=      5-min Rain = 0
KPD4 180726Z 20012KT 08/M02 A2982 RMK A01 T00751018  RH  052%=      5-min Rain = 0
KPD4 180727Z 20014KT 08/M02 A2982 RMK A01 T00751018  RH  052%=      5-min Rain = 0
KPD4 180728Z 20015KT 08/M02 A2982 RMK A01 T00751019  RH  051%=      5-min Rain = 0
KPD4 180729Z 20015KT 08/M02 A2982 RMK A01 T00771019  RH  051%=      5-min Rain = 0
KPD4 180730Z 20015KT 08/M02 A2982 RMK A01 T00781019  RH  050%=      5-min Rain = 0
KPD4 180731Z 19013KT 08/M02 A2981 RMK A01 T00791019  RH  050%=      5-min Rain = 0
KPD4 180732Z 20013KT 08/M02 A2981 RMK A01 T00791020  RH  050%=      5-min Rain = 0
KPD4 180733Z 19015KT 08/M02 A2981 RMK A01 T00791020  RH  050%=      5-min Rain = 0
KPD4 180734Z 20015KT 08/M02 A2981 RMK A01 T00801020  RH  049%=      5-min Rain = 0
KPD4 180735Z 19014KT 08/M02 A2981 RMK A01 T00801020  RH  049%=      5-min Rain = 0
KPD4 180736Z 20014KT 08/M02 A2981 RMK A01 T00811020  RH  049%=      5-min Rain = 0
KPD4 180737Z 19014KT 08/M02 A2981 RMK A01 T00811020  RH  049%=      5-min Rain = 0
KPD4 180738Z 19012KT 08/M02 A2981 RMK A01 T00801020  RH  049%=      5-min Rain = 0
KPD4 180739Z 19016KT 08/M02 A2981 RMK A01 T00791021  RH  049%=      5-min Rain = 0
KPD4 180740Z 19014KT 08/M02 A2981 RMK A01 T00801020  RH  049%=      5-min Rain = 0
KPD4 180741Z 20015KT 08/M02 A2981 RMK A01 T00801020  RH  049%=      5-min Rain = 0
KPD4 180742Z 19016KT 08/M02 A298 RMK A01 T00791021  RH  049%=      5-min Rain = 0
KPD4 180743Z 19015KT 08/M02 A298 RMK A01 T00791021  RH  049%=      5-min Rain = 0
KPD4 180744Z 19014KT 08/M02 A298 RMK A01 T00801021  RH  049%=      5-min Rain = 0
KPD4 180745Z 19018KT 08/M02 A298 RMK A01 T00801021  RH  049%=      5-min Rain = 0
KPD4 180746Z 20016G21KT 08/M02 A298 RMK A01 T00801021  RH  049%=      5-min Rain = 0
KPD4 180747Z 19014KT 08/M02 A298 RMK A01 T00811021  RH  049%=      5-min Rain = 0
KPD4 180748Z 19017KT 08/M02 A298 RMK A01 T00801021  RH  049%=      5-min Rain = 0
KPD4 180749Z 19014KT 08/M02 A298 RMK A01 T00791021  RH  049%=      5-min Rain = 0
KPD4 180750Z 20014KT 08/M02 A298 RMK A01 T00791022  RH  049%=      5-min Rain = 0
KPD4 180751Z 20014KT 08/M02 A298 RMK A01 T00781022  RH  049%=      5-min Rain = 0
KPD4 180752Z 19016KT 08/M02 A298 RMK A01 T00781022  RH  049%=      5-min Rain = 0
KPD4 180753Z 20016KT 08/M02 A298 RMK A01 T00791022  RH  049%=      5-min Rain = 0
KPD4 180754Z 20014KT 08/M02 A298 RMK A01 T00791022  RH  049%=      5-min Rain = 0
KPD4 180755Z 20014KT 08/M02 A298 RMK A01 T00781022  RH  049%=      5-min Rain = 0
KPD4 180756Z 20016KT 08/M02 A298 RMK A01 T00761022  RH  050%=      5-min Rain = 0
KPD4 180757Z 20015KT 08/M02 A298 RMK A01 T00761021  RH  050%=      5-min Rain = 0
KPD4 180758Z 20015KT 08/M02 A298 RMK A01 T00761021  RH  050%=      5-min Rain = 0
KPD4 180759Z 20015KT 08/M02 A298 RMK A01 T00751021  RH  050%=      5-min Rain = 0
KPD4 180800Z 20013KT 08/M02 A298 RMK A01 T00751021  RH  050%=      5-min Rain = 0
KPD4 180801Z 20014KT 07/M02 A298 RMK A01 T00741021  RH  051%=      5-min Rain = 0
KPD4 180802Z 20016KT 07/M02 A298 RMK A01 T00731022  RH  051%=      5-min Rain = 0
KPD4 180803Z 20015KT 07/M02 A298 RMK A01 T00731022  RH  051%=      5-min Rain = 0
KPD4 180804Z 20015KT 07/M02 A298 RMK A01 T00731022  RH  051%=      5-min Rain = 0
KPD4 180805Z 20015KT 07/M02 A298 RMK A01 T00731022  RH  051%=      5-min Rain = 0
KPD4 180806Z 20014KT 07/M02 A298 RMK A01 T00721022  RH  051%=      5-min Rain = 0
KPD4 180807Z 20012KT 07/M02 A298 RMK A01 T00721021  RH  052%=      5-min Rain = 0
KPD4 180808Z 20014G19KT 07/M02 A298 RMK A01 T00701022  RH  052%=      5-min Rain = 0
KPD4 180809Z 20014KT 07/M02 A298 RMK A01 T00691022  RH  052%=      5-min Rain = 0
KPD4 180810Z 20014KT 07/M02 A298 RMK A01 T00691022  RH  052%=      5-min Rain = 0
KPD4 180811Z 19014KT 07/M02 A298 RMK A01 T00701022  RH  052%=      5-min Rain = 0
KPD4 180812Z 20014KT 07/M02 A298 RMK A01 T00691021  RH  052%=      5-min Rain = 0
KPD4 180813Z 20014KT 07/M02 A298 RMK A01 T00691022  RH  052%=      5-min Rain = 0
KPD4 180814Z 20013KT 07/M02 A298 RMK A01 T00691022  RH  053%=      5-min Rain = 0
KPD4 180815Z 19014KT 07/M02 A2979 RMK A01 T00671022  RH  053%=      5-min Rain = 0
KPD4 180816Z 19012KT 07/M02 A2979 RMK A01 T00681022  RH  053%=      5-min Rain = 0
KPD4 180817Z 19013KT 07/M02 A2979 RMK A01 T00671022  RH  053%=      5-min Rain = 0
KPD4 180818Z 19013KT 07/M02 A2979 RMK A01 T00661022  RH  053%=      5-min Rain = 0
KPD4 180819Z 19013KT 07/M02 A2979 RMK A01 T00651022  RH  054%=      5-min Rain = 0
KPD4 180820Z 19013KT 07/M02 A2978 RMK A01 T00651022  RH  054%=      5-min Rain = 0
KPD4 180821Z 19014KT 07/M02 A2978 RMK A01 T00651022  RH  054%=      5-min Rain = 0
KPD4 180822Z 19013KT 06/M02 A2978 RMK A01 T00641022  RH  054%=      5-min Rain = 0
KPD4 180823Z 20014KT 06/M02 A2978 RMK A01 T00641023  RH  054%=      5-min Rain = 0
KPD4 180824Z 19016KT 06/M02 A2978 RMK A01 T00631023  RH  054%=      5-min Rain = 0
KPD4 180825Z 19015KT 06/M02 A2977 RMK A01 T00641022  RH  054%=      5-min Rain = 0
KPD4 180826Z 19014KT 06/M02 A2977 RMK A01 T00641023  RH  054%=      5-min Rain = 0
KPD4 180827Z 20015G20KT 06/M02 A2977 RMK A01 T00641022  RH  054%=      5-min Rain = 0
KPD4 180828Z 20016KT 06/M02 A2977 RMK A01 T00641023  RH  054%=      5-min Rain = 0
KPD4 180829Z 20016KT 06/M02 A2977 RMK A01 T00641023  RH  054%=      5-min Rain = 0
KPD4 180830Z 20016KT 07/M02 A2977 RMK A01 T00651023  RH  053%=      5-min Rain = 0
KPD4 180831Z 20016KT 07/M02 A2977 RMK A01 T00661024  RH  053%=      5-min Rain = 0
KPD4 180832Z 20015KT 07/M02 A2977 RMK A01 T00661024  RH  053%=      5-min Rain = 0
KPD4 180833Z 20017KT 07/M02 A2977 RMK A01 T00671024  RH  052%=      5-min Rain = 0
KPD4 180834Z 20014KT 07/M02 A2977 RMK A01 T00681024  RH  052%=      5-min Rain = 0
KPD4 180835Z 20014KT 07/M02 A2977 RMK A01 T00681024  RH  052%=      5-min Rain = 0
KPD4 180836Z 21015KT 07/M02 A2977 RMK A01 T00681024  RH  052%=      5-min Rain = 0
KPD4 180837Z 20014KT 07/M03 A2977 RMK A01 T00671025  RH  052%=      5-min Rain = 0
KPD4 180838Z 21014KT 07/M03 A2978 RMK A01 T00671025  RH  052%=      5-min Rain = 0
KPD4 180839Z 21012KT 07/M02 A2978 RMK A01 T00681024  RH  052%=      5-min Rain = 0
KPD4 180840Z 20014KT 07/M03 A2978 RMK A01 T00671025  RH  052%=      5-min Rain = 0
KPD4 180841Z 21015KT 07/M03 A2978 RMK A01 T00671025  RH  052%=      5-min Rain = 0
KPD4 180842Z 21013KT 07/M03 A2978 RMK A01 T00671025  RH  052%=      5-min Rain = 0
KPD4 180843Z 20015KT 07/M03 A2978 RMK A01 T00671025  RH  052%=      5-min Rain = 0
KPD4 180844Z 21016KT 07/M03 A2978 RMK A01 T00671025  RH  052%=      5-min Rain = 0
KPD4 180845Z 20014KT 07/M03 A2977 RMK A01 T00671025  RH  052%=      5-min Rain = 0
KPD4 180846Z 20015KT 07/M03 A2977 RMK A01 T00671025  RH  052%=      5-min Rain = 0
KPD4 180847Z 20015KT 07/M03 A2977 RMK A01 T00671025  RH  052%=      5-min Rain = 0
KPD4 180848Z 20016KT 07/M03 A2977 RMK A01 T00671025  RH  052%=      5-min Rain = 0
KPD4 180849Z 20017KT 07/M03 A2977 RMK A01 T00671025  RH  052%=      5-min Rain = 0
KPD4 180850Z 20017KT 07/M03 A2977 RMK A01 T00681025  RH  052%=      5-min Rain = 0
KPD4 180851Z 20015KT 07/M03 A2977 RMK A01 T00681025  RH  051%=      5-min Rain = 0
KPD4 180852Z 20015KT 07/M03 A2977 RMK A01 T00671025  RH  052%=      5-min Rain = 0
KPD4 180853Z 20016KT 07/M03 A2977 RMK A01 T00661025  RH  052%=      5-min Rain = 0
KPD4 180854Z 20014KT 07/M03 A2977 RMK A01 T00661025  RH  052%=      5-min Rain = 0
KPD4 180855Z 20014KT 07/M03 A2977 RMK A01 T00651025  RH  052%=      5-min Rain = 0
KPD4 180856Z 20015KT 06/M03 A2977 RMK A01 T00641025  RH  053%=      5-min Rain = 0
KPD4 180857Z 20015KT 06/M03 A2977 RMK A01 T00641025  RH  053%=      5-min Rain = 0
KPD4 180858Z 20015KT 06/M03 A2977 RMK A01 T00641025  RH  053%=      5-min Rain = 0
KPD4 180859Z 20015KT 06/M03 A2977 RMK A01 T00631025  RH  053%=      5-min Rain = 0
KPD4 180900Z 20015KT 06/M03 A2977 RMK A01 T00631025  RH  054%=      5-min Rain = 0
KPD4 180901Z 20014KT 06/M02 A2977 RMK A01 T00631024  RH  054%=      5-min Rain = 0
KPD4 180902Z 20014KT 06/M03 A2976 RMK A01 T00621025  RH  054%=      5-min Rain = 0
KPD4 180903Z 20012KT 06/M03 A2977 RMK A01 T00621025  RH  054%=      5-min Rain = 0
KPD4 180904Z 20013KT 06/M03 A2977 RMK A01 T00611025  RH  054%=      5-min Rain = 0
KPD4 180905Z 20012KT 06/M03 A2977 RMK A01 T00611025  RH  054%=      5-min Rain = 0
KPD4 180906Z 20013KT 06/M03 A2976 RMK A01 T00611025  RH  054%=      5-min Rain = 0
KPD4 180907Z 20013KT 06/M02 A2976 RMK A01 T00611024  RH  054%=      5-min Rain = 0
KPD4 180908Z 20013KT 06/M02 A2976 RMK A01 T00611024  RH  054%=      5-min Rain = 0
KPD4 180909Z 20013KT 06/M02 A2976 RMK A01 T00611024  RH  054%=      5-min Rain = 0
KPD4 180910Z 20012KT 06/M02 A2976 RMK A01 T00611024  RH  054%=      5-min Rain = 0
KPD4 180911Z 20013KT 06/M02 A2976 RMK A01 T00601024  RH  055%=      5-min Rain = 0
KPD4 180912Z 20013KT 06/M03 A2976 RMK A01 T00601025  RH  055%=      5-min Rain = 0
KPD4 180913Z 20011KT 06/M02 A2976 RMK A01 T00601024  RH  055%=      5-min Rain = 0
KPD4 180914Z 20012KT 06/M03 A2976 RMK A01 T00591025  RH  055%=      5-min Rain = 0
KPD4 180915Z 20010KT 06/M03 A2976 RMK A01 T00591025  RH  055%=      5-min Rain = 0
KPD4 180916Z 20010KT 06/M03 A2976 RMK A01 T00581025  RH  055%=      5-min Rain = 0
KPD4 180917Z 20012KT 06/M03 A2976 RMK A01 T00571025  RH  056%=      5-min Rain = 0
KPD4 180918Z 20012KT 06/M02 A2976 RMK A01 T00571024  RH  056%=      5-min Rain = 0
KPD4 180919Z 20012KT 06/M03 A2976 RMK A01 T00571025  RH  056%=      5-min Rain = 0
KPD4 180920Z 20011KT 06/M02 A2976 RMK A01 T00571024  RH  056%=      5-min Rain = 0
KPD4 180921Z 20012G17KT 06/M02 A2976 RMK A01 T00571024  RH  056%=      5-min Rain = 0
KPD4 180922Z 20011KT 06/M02 A2976 RMK A01 T00571024  RH  056%=      5-min Rain = 0
KPD4 180923Z 19011KT 06/M02 A2976 RMK A01 T00561024  RH  056%=      5-min Rain = 0
KPD4 180924Z 19011KT 06/M02 A2976 RMK A01 T00561024  RH  056%=      5-min Rain = 0
KPD4 180925Z 19012KT 06/M02 A2976 RMK A01 T00561024  RH  056%=      5-min Rain = 0
KPD4 180926Z 20010KT 06/M02 A2976 RMK A01 T00561024  RH  056%=      5-min Rain = 0
KPD4 180927Z 21012KT 06/M02 A2976 RMK A01 T00561024  RH  056%=      5-min Rain = 0
KPD4 180928Z 20012KT 06/M02 A2976 RMK A01 T00571024  RH  056%=      5-min Rain = 0
KPD4 180929Z 20011KT 06/M02 A2976 RMK A01 T00571024  RH  056%=      5-min Rain = 0
KPD4 180930Z 20011KT 06/M02 A2976 RMK A01 T00571024  RH  056%=      5-min Rain = 0
KPD4 180931Z 20011KT 06/M02 A2976 RMK A01 T00571024  RH  056%=      5-min Rain = 0
KPD4 180932Z 21012KT 06/M02 A2976 RMK A01 T00571024  RH  056%=      5-min Rain = 0
KPD4 180933Z 20015KT 06/M02 A2976 RMK A01 T00581023  RH  056%=      5-min Rain = 0
KPD4 180934Z 20012KT 06/M02 A2976 RMK A01 T00591023  RH  056%=      5-min Rain = 0
KPD4 180935Z 20015KT 06/M02 A2976 RMK A01 T00591023  RH  056%=      5-min Rain = 0
KPD4 180936Z 20014KT 06/M02 A2976 RMK A01 T00591023  RH  056%=      5-min Rain = 0
KPD4 180937Z 20013KT 06/M02 A2976 RMK A01 T00601023  RH  055%=      5-min Rain = 0
KPD4 180938Z 20015KT 06/M02 A2976 RMK A01 T00601023  RH  055%=      5-min Rain = 0
KPD4 180939Z 20013KT 06/M02 A2976 RMK A01 T00611023  RH  055%=      5-min Rain = 0
KPD4 180940Z 19013KT 06/M02 A2975 RMK A01 T00611023  RH  055%=      5-min Rain = 0
KPD4 180941Z 19013KT 06/M02 A2976 RMK A01 T00611023  RH  055%=      5-min Rain = 0
KPD4 180942Z 20013KT 06/M02 A2976 RMK A01 T00601023  RH  055%=      5-min Rain = 0
KPD4 180943Z 19014KT 06/M02 A2975 RMK A01 T00601023  RH  055%=      5-min Rain = 0
KPD4 180944Z 20014KT 06/M02 A2975 RMK A01 T00601023  RH  055%=      5-min Rain = 0
KPD4 180945Z 20014KT 06/M02 A2975 RMK A01 T00611022  RH  055%=      5-min Rain = 0
KPD4 180946Z 20012KT 06/M02 A2975 RMK A01 T00621022  RH  055%=      5-min Rain = 0
KPD4 180947Z 20012KT 06/M02 A2975 RMK A01 T00621022  RH  055%=      5-min Rain = 0
KPD4 180948Z 20012KT 06/M02 A2975 RMK A01 T00611023  RH  055%=      5-min Rain = 0
KPD4 180949Z 20012KT 06/M02 A2976 RMK A01 T00601022  RH  055%=      5-min Rain = 0
KPD4 180950Z 20012KT 06/M02 A2976 RMK A01 T00601022  RH  056%=      5-min Rain = 0
KPD4 180951Z 20012KT 06/M02 A2976 RMK A01 T00601022  RH  056%=      5-min Rain = 0
KPD4 180952Z 20013KT 06/M02 A2975 RMK A01 T00601022  RH  056%=      5-min Rain = 0
KPD4 180953Z 20012KT 06/M02 A2975 RMK A01 T00601022  RH  056%=      5-min Rain = 0
KPD4 180954Z 20013KT 06/M02 A2975 RMK A01 T00601022  RH  055%=      5-min Rain = 0
KPD4 180955Z 20012KT 06/M02 A2975 RMK A01 T00611022  RH  055%=      5-min Rain = 0
KPD4 180956Z 20012KT 06/M02 A2975 RMK A01 T00601022  RH  056%=      5-min Rain = 0
KPD4 180957Z 20011KT 06/M02 A2975 RMK A01 T00601022  RH  056%=      5-min Rain = 0
KPD4 180958Z 20012KT 06/M02 A2975 RMK A01 T00591022  RH  056%=      5-min Rain = 0
KPD4 180959Z 20011KT 06/M02 A2975 RMK A01 T00591022  RH  056%=      5-min Rain = 0
KPD4 181000Z 20011KT 06/M02 A2975 RMK A01 T00581022  RH  056%=      5-min Rain = 0
KPD4 181001Z 20011KT 06/M02 A2975 RMK A01 T00581022  RH  056%=      5-min Rain = 0
KPD4 181002Z 20011KT 06/M02 A2975 RMK A01 T00581022  RH  057%=      5-min Rain = 0
KPD4 181003Z 20012KT 06/M02 A2975 RMK A01 T00571022  RH  057%=      5-min Rain = 0
KPD4 181004Z 20010KT 06/M02 A2974 RMK A01 T00581022  RH  057%=      5-min Rain = 0
KPD4 181005Z 20010KT 06/M02 A2974 RMK A01 T00561022  RH  057%=      5-min Rain = 0
KPD4 181006Z 19009KT 06/M02 A2974 RMK A01 T00551022  RH  057%=      5-min Rain = 0
KPD4 181007Z 20009KT 06/M02 A2974 RMK A01 T00551022  RH  058%=      5-min Rain = 0
KPD4 181008Z 20008KT 05/M02 A2974 RMK A01 T00541022  RH  058%=      5-min Rain = 0
KPD4 181009Z 20009KT 05/M02 A2974 RMK A01 T00541023  RH  058%=      5-min Rain = 0
KPD4 181010Z 19009KT 05/M02 A2974 RMK A01 T00531023  RH  058%=      5-min Rain = 0
KPD4 181011Z 19009KT 05/M02 A2974 RMK A01 T00521023  RH  058%=      5-min Rain = 0
KPD4 181012Z 19009KT 05/M02 A2974 RMK A01 T00521023  RH  059%=      5-min Rain = 0
KPD4 181013Z 19010KT 05/M02 A2974 RMK A01 T00511023  RH  059%=      5-min Rain = 0
KPD4 181014Z 19009KT 05/M02 A2974 RMK A01 T00511023  RH  059%=      5-min Rain = 0
KPD4 181015Z 19009KT 05/M02 A2974 RMK A01 T00501023  RH  059%=      5-min Rain = 0
KPD4 181016Z 19009KT 05/M02 A2974 RMK A01 T00501023  RH  059%=      5-min Rain = 0
KPD4 181017Z 19009KT 05/M02 A2974 RMK A01 T00501023  RH  059%=      5-min Rain = 0
KPD4 181018Z 19009KT 05/M02 A2974 RMK A01 T00491023  RH  060%=      5-min Rain = 0
KPD4 181019Z 19008KT 05/M02 A2974 RMK A01 T00481023  RH  060%=      5-min Rain = 0
KPD4 181020Z 19010KT 05/M02 A2974 RMK A01 T00471023  RH  060%=      5-min Rain = 0
KPD4 181021Z 19010KT 05/M02 A2974 RMK A01 T00481023  RH  060%=      5-min Rain = 0
KPD4 181022Z 19010KT 05/M02 A2974 RMK A01 T00481023  RH  060%=      5-min Rain = 0
KPD4 181023Z 19010KT 05/M02 A2974 RMK A01 T00481022  RH  060%=      5-min Rain = 0
KPD4 181024Z 20010KT 05/M02 A2974 RMK A01 T00481022  RH  060%=      5-min Rain = 0
KPD4 181025Z 19010KT 05/M02 A2974 RMK A01 T00481022  RH  060%=      5-min Rain = 0
KPD4 181026Z 19010KT 05/M02 A2973 RMK A01 T00471023  RH  060%=      5-min Rain = 0
KPD4 181027Z 19010KT 05/M02 A2973 RMK A01 T00471023  RH  061%=      5-min Rain = 0
KPD4 181028Z 19009KT 05/M02 A2973 RMK A01 T00481022  RH  060%=      5-min Rain = 0
KPD4 181029Z 19009KT 05/M02 A2973 RMK A01 T00481022  RH  060%=      5-min Rain = 0
KPD4 181030Z 20009KT 05/M02 A2973 RMK A01 T00481023  RH  060%=      5-min Rain = 0
KPD4 181031Z 20009KT 05/M02 A2973 RMK A01 T00481023  RH  060%=      5-min Rain = 0
KPD4 181032Z 19009KT 05/M02 A2973 RMK A01 T00461023  RH  061%=      5-min Rain = 0
KPD4 181033Z 19009KT 05/M02 A2973 RMK A01 T00461023  RH  061%=      5-min Rain = 0
KPD4 181034Z 20010KT 05/M02 A2973 RMK A01 T00461023  RH  061%=      5-min Rain = 0
KPD4 181035Z 20010KT 05/M02 A2973 RMK A01 T00461023  RH  061%=      5-min Rain = 0
KPD4 181036Z 20010KT 05/M02 A2973 RMK A01 T00461023  RH  061%=      5-min Rain = 0
KPD4 181037Z 20011KT 05/M02 A2973 RMK A01 T00471022  RH  061%=      5-min Rain = 0
KPD4 181038Z 19011KT 05/M02 A2973 RMK A01 T00481022  RH  061%=      5-min Rain = 0
KPD4 181039Z 19011KT 05/M02 A2972 RMK A01 T00481022  RH  060%=      5-min Rain = 0
KPD4 181040Z 20010KT 05/M02 A2972 RMK A01 T00481022  RH  060%=      5-min Rain = 0
KPD4 181041Z 20011KT 05/M02 A2972 RMK A01 T00471023  RH  060%=      5-min Rain = 0
KPD4 181042Z 20011KT 05/M02 A2972 RMK A01 T00471023  RH  060%=      5-min Rain = 0
KPD4 181043Z 20010KT 05/M02 A2973 RMK A01 T00471023  RH  060%=      5-min Rain = 0
KPD4 181044Z 20011KT 05/M02 A2972 RMK A01 T00471023  RH  061%=      5-min Rain = 0
KPD4 181045Z 20011KT 05/M02 A2972 RMK A01 T00471023  RH  060%=      5-min Rain = 0
KPD4 181046Z 20011KT 05/M02 A2972 RMK A01 T00481023  RH  060%=      5-min Rain = 0
KPD4 181047Z 20010KT 05/M02 A2972 RMK A01 T00491023  RH  059%=      5-min Rain = 0
KPD4 181048Z 20010KT 05/M02 A2972 RMK A01 T00501024  RH  059%=      5-min Rain = 0
KPD4 181049Z 20010KT 05/M02 A2972 RMK A01 T00501024  RH  059%=      5-min Rain = 0
KPD4 181050Z 19011KT 05/M02 A2972 RMK A01 T00501024  RH  059%=      5-min Rain = 0
KPD4 181051Z 20011KT 05/M02 A2972 RMK A01 T00501024  RH  059%=      5-min Rain = 0
KPD4 181052Z 19011KT 05/M03 A2972 RMK A01 T00501025  RH  059%=      5-min Rain = 0
KPD4 181053Z 19011KT 05/M03 A2972 RMK A01 T00501025  RH  059%=      5-min Rain = 0
KPD4 181054Z 19011KT 05/M02 A2971 RMK A01 T00501024  RH  059%=      5-min Rain = 0
KPD4 181055Z 20012KT 05/M02 A2971 RMK A01 T00501024  RH  058%=      5-min Rain = 0
KPD4 181056Z 20012KT 05/M02 A2971 RMK A01 T00511024  RH  058%=      5-min Rain = 0
KPD4 181057Z 19011KT 05/M02 A2971 RMK A01 T00511024  RH  058%=      5-min Rain = 0
KPD4 181058Z 20013KT 05/M02 A2971 RMK A01 T00511024  RH  058%=      5-min Rain = 0
KPD4 181059Z 20012KT 05/M02 A2971 RMK A01 T00531024  RH  058%=      5-min Rain = 0
KPD4 181100Z 20010KT 05/M02 A2971 RMK A01 T00531024  RH  057%=      5-min Rain = 0
KPD4 181101Z 19011KT 05/M02 A2971 RMK A01 T00531024  RH  057%=      5-min Rain = 0
KPD4 181102Z 20010KT 05/M03 A2971 RMK A01 T00531025  RH  057%=      5-min Rain = 0
KPD4 181103Z 20009KT 05/M03 A2971 RMK A01 T00541025  RH  057%=      5-min Rain = 0
KPD4 181104Z 20009KT 05/M03 A2971 RMK A01 T00541025  RH  057%=      5-min Rain = 0
KPD4 181105Z 20008KT 05/M03 A2971 RMK A01 T00531025  RH  057%=      5-min Rain = 0
KPD4 181106Z 20009KT 05/M03 A2971 RMK A01 T00521025  RH  057%=      5-min Rain = 0
KPD4 181107Z 20008KT 05/M02 A2971 RMK A01 T00521024  RH  058%=      5-min Rain = 0
KPD4 181108Z 20008KT 05/M02 A2971 RMK A01 T00521024  RH  058%=      5-min Rain = 0
KPD4 181109Z 20008KT 05/M02 A2971 RMK A01 T00521024  RH  058%=      5-min Rain = 0
KPD4 181110Z 20009KT 05/M02 A2971 RMK A01 T00521024  RH  058%=      5-min Rain = 0
KPD4 181111Z 20009KT 05/M02 A2971 RMK A01 T00521024  RH  058%=      5-min Rain = 0
KPD4 181112Z 20009KT 05/M03 A2971 RMK A01 T00531025  RH  057%=      5-min Rain = 0
KPD4 181113Z 19010KT 05/M03 A2971 RMK A01 T00531025  RH  057%=      5-min Rain = 0
KPD4 181114Z 20009KT 05/M03 A2971 RMK A01 T00541025  RH  057%=      5-min Rain = 0
KPD4 181115Z 20009KT 05/M02 A2971 RMK A01 T00541024  RH  057%=      5-min Rain = 0
KPD4 181116Z 20009KT 05/M02 A2971 RMK A01 T00541024  RH  057%=      5-min Rain = 0
KPD4 181117Z 20009KT 05/M02 A2971 RMK A01 T00531024  RH  057%=      5-min Rain = 0
KPD4 181118Z 20009KT 05/M02 A2971 RMK A01 T00531024  RH  058%=      5-min Rain = 0
KPD4 181119Z 20009KT 05/M02 A2971 RMK A01 T00521024  RH  058%=      5-min Rain = 0
KPD4 181120Z 20009KT 05/M03 A2971 RMK A01 T00521025  RH  058%=      5-min Rain = 0
KPD4 181121Z 20007KT 05/M02 A2971 RMK A01 T00531024  RH  057%=      5-min Rain = 0
KPD4 181122Z 20009KT 05/M02 A2971 RMK A01 T00541024  RH  057%=      5-min Rain = 0
KPD4 181123Z 19008KT 05/M03 A2971 RMK A01 T00541025  RH  057%=      5-min Rain = 0
KPD4 181124Z 18007KT 05/M03 A2971 RMK A01 T00531025  RH  057%=      5-min Rain = 0
KPD4 181125Z 17007KT 05/M03 A2971 RMK A01 T00521025  RH  058%=      5-min Rain = 0
KPD4 181126Z 17007KT 05/M03 A2971 RMK A01 T00501025  RH  058%=      5-min Rain = 0
KPD4 181127Z 18008KT 05/M03 A2971 RMK A01 T00491025  RH  059%=      5-min Rain = 0
KPD4 181128Z 18008KT 05/M02 A297 RMK A01 T00481024  RH  059%=      5-min Rain = 0
KPD4 181129Z 18008KT 05/M02 A297 RMK A01 T00481024  RH  060%=      5-min Rain = 0
KPD4 181130Z 18008KT 05/M02 A297 RMK A01 T00471023  RH  060%=      5-min Rain = 0
KPD4 181131Z 19009KT 05/M02 A2971 RMK A01 T00471022  RH  061%=      5-min Rain = 0
KPD4 181132Z 19009KT 05/M02 A2971 RMK A01 T00471022  RH  061%=      5-min Rain = 0
KPD4 181133Z 19010KT 05/M02 A297 RMK A01 T00461022  RH  061%=      5-min Rain = 0
KPD4 181134Z 19010KT 05/M02 A297 RMK A01 T00461022  RH  061%=      5-min Rain = 0
KPD4 181135Z 19010KT 05/M02 A297 RMK A01 T00461022  RH  061%=      5-min Rain = 0
KPD4 181136Z 19011KT 05/M02 A297 RMK A01 T00461023  RH  061%=      5-min Rain = 0
KPD4 181137Z 19009KT 05/M02 A297 RMK A01 T00471022  RH  061%=      5-min Rain = 0
KPD4 181138Z 19009KT 05/M02 A297 RMK A01 T00471023  RH  060%=      5-min Rain = 0
KPD4 181139Z 19009KT 05/M02 A297 RMK A01 T00471023  RH  060%=      5-min Rain = 0
KPD4 181140Z 19009KT 05/M02 A297 RMK A01 T00471023  RH  060%=      5-min Rain = 0
KPD4 181141Z 19009KT 05/M02 A297 RMK A01 T00481023  RH  060%=      5-min Rain = 0
KPD4 181142Z 19009KT 05/M02 A297 RMK A01 T00481023  RH  060%=      5-min Rain = 0
KPD4 181143Z 19009KT 05/M02 A297 RMK A01 T00491023  RH  060%=      5-min Rain = 0
KPD4 181144Z 19009KT 05/M02 A297 RMK A01 T00491023  RH  060%=      5-min Rain = 0
KPD4 181145Z 19009KT 05/M02 A2969 RMK A01 T00491022  RH  060%=      5-min Rain = 0
KPD4 181146Z 19009KT 05/M02 A297 RMK A01 T00481023  RH  060%=      5-min Rain = 0
KPD4 181147Z 19009KT 05/M02 A297 RMK A01 T00481023  RH  060%=      5-min Rain = 0
KPD4 181148Z 19009KT 05/M02 A297 RMK A01 T00481023  RH  060%=      5-min Rain = 0
KPD4 181149Z 19010KT 05/M02 A2969 RMK A01 T00471023  RH  061%=      5-min Rain = 0
KPD4 181150Z 19010KT 05/M02 A2969 RMK A01 T00461023  RH  061%=      5-min Rain = 0
KPD4 181151Z 19010KT 05/M02 A2969 RMK A01 T00461023  RH  061%=      5-min Rain = 0
KPD4 181152Z 19009KT 05/M02 A2968 RMK A01 T00481022  RH  061%=      5-min Rain = 0
KPD4 181153Z 19010KT 05/M02 A2968 RMK A01 T00481022  RH  060%=      5-min Rain = 0
KPD4 181154Z 19012KT 05/M02 A2968 RMK A01 T00481023  RH  060%=      5-min Rain = 0
KPD4 181155Z 19011KT 05/M02 A2968 RMK A01 T00511022  RH  059%=      5-min Rain = 0
KPD4 181156Z 19010KT 05/M02 A2968 RMK A01 T00541022  RH  058%=      5-min Rain = 0
KPD4 181157Z 19010KT 05/M02 A2968 RMK A01 T00541023  RH  058%=      5-min Rain = 0
KPD4 181158Z 19010KT 06/M02 A2968 RMK A01 T00551023  RH  057%=      5-min Rain = 0
KPD4 181159Z 20010KT 06/M02 A2968 RMK A01 T00551023  RH  057%=      5-min Rain = 0
KPD4 181200Z 20009KT 06/M02 A2968 RMK A01 T00551023  RH  057%=      5-min Rain = 0
KPD4 181201Z 20009KT 05/M02 A2968 RMK A01 T00541023  RH  058%=      5-min Rain = 0
KPD4 181202Z 20010KT 05/M02 A2968 RMK A01 T00541023  RH  058%=      5-min Rain = 0
KPD4 181203Z 20010KT 06/M02 A2968 RMK A01 T00551023  RH  057%=      5-min Rain = 0
KPD4 181204Z 21011KT 06/M02 A2968 RMK A01 T00561023  RH  057%=      5-min Rain = 0
KPD4 181205Z 21010KT 06/M02 A2968 RMK A01 T00581023  RH  056%=      5-min Rain = 0
KPD4 181206Z 21011KT 06/M02 A2968 RMK A01 T00591023  RH  056%=      5-min Rain = 0
KPD4 181207Z 20011KT 06/M02 A2968 RMK A01 T00591023  RH  055%=      5-min Rain = 0
KPD4 181208Z 21010KT 06/M02 A2968 RMK A01 T00601023  RH  055%=      5-min Rain = 0
KPD4 181209Z 20010KT 06/M02 A2968 RMK A01 T00601023  RH  055%=      5-min Rain = 0
KPD4 181210Z 21011KT 06/M02 A2967 RMK A01 T00601023  RH  055%=      5-min Rain = 0
KPD4 181211Z 21009KT 06/M02 A2967 RMK A01 T00611023  RH  055%=      5-min Rain = 0
KPD4 181212Z 20012KT 06/M02 A2967 RMK A01 T00611023  RH  055%=      5-min Rain = 0
KPD4 181213Z 21011KT 06/M02 A2967 RMK A01 T00621023  RH  054%=      5-min Rain = 0
KPD4 181214Z 20010KT 06/M02 A2967 RMK A01 T00631023  RH  054%=      5-min Rain = 0
KPD4 181215Z 20010KT 06/M02 A2967 RMK A01 T00631023  RH  054%=      5-min Rain = 0
KPD4 181216Z 20010KT 06/M02 A2967 RMK A01 T00631023  RH  054%=      5-min Rain = 0
KPD4 181217Z 21009KT 06/M02 A2967 RMK A01 T00631022  RH  054%=      5-min Rain = 0
KPD4 181218Z 20010KT 06/M02 A2967 RMK A01 T00631022  RH  055%=      5-min Rain = 0
KPD4 181219Z 21009KT 06/M02 A2967 RMK A01 T00631022  RH  055%=      5-min Rain = 0
KPD4 181220Z 20010KT 06/M02 A2967 RMK A01 T00631022  RH  055%=      5-min Rain = 0
KPD4 181221Z 20009KT 06/M02 A2967 RMK A01 T00631022  RH  054%=      5-min Rain = 0
KPD4 181222Z 21008KT 06/M02 A2967 RMK A01 T00631022  RH  055%=      5-min Rain = 0
KPD4 181223Z 22007KT 06/M02 A2967 RMK A01 T00631022  RH  055%=      5-min Rain = 0
KPD4 181224Z 22007KT 06/M02 A2967 RMK A01 T00631022  RH  055%=      5-min Rain = 0
KPD4 181225Z 22006KT 06/M02 A2967 RMK A01 T00631022  RH  055%=      5-min Rain = 0
KPD4 181226Z 22006KT 06/M02 A2967 RMK A01 T00631021  RH  055%=      5-min Rain = 0
KPD4 181227Z 22005KT 06/M02 A2967 RMK A01 T00631022  RH  055%=      5-min Rain = 0
KPD4 181228Z 22007KT 06/M02 A2967 RMK A01 T00621022  RH  055%=      5-min Rain = 0
KPD4 181229Z 21008KT 06/M02 A2967 RMK A01 T00631022  RH  055%=      5-min Rain = 0
KPD4 181230Z 21008KT 06/M02 A2967 RMK A01 T00631021  RH  055%=      5-min Rain = 0
KPD4 181231Z 21009KT 06/M02 A2967 RMK A01 T00631021  RH  055%=      5-min Rain = 0
KPD4 181232Z 21009KT 06/M02 A2967 RMK A01 T00631021  RH  055%=      5-min Rain = 0
KPD4 181233Z 21009KT 06/M02 A2966 RMK A01 T00641021  RH  055%=      5-min Rain = 0
KPD4 181234Z 21010KT 06/M02 A2966 RMK A01 T00641021  RH  054%=      5-min Rain = 0
KPD4 181235Z 21010KT 07/M02 A2966 RMK A01 T00651021  RH  054%=      5-min Rain = 0
KPD4 181236Z 21010KT 07/M02 A2966 RMK A01 T00651021  RH  054%=      5-min Rain = 0
KPD4 181237Z 20011KT 07/M02 A2966 RMK A01 T00651021  RH  054%=      5-min Rain = 0
KPD4 181238Z 20010KT 07/M02 A2966 RMK A01 T00651021  RH  054%=      5-min Rain = 0
KPD4 181239Z 20008KT 07/M02 A2966 RMK A01 T00651020  RH  055%=      5-min Rain = 0
KPD4 181240Z 20008KT 06/M02 A2966 RMK A01 T00641020  RH  055%=      5-min Rain = 0
KPD4 181241Z 21008KT 06/M02 A2966 RMK A01 T00641020  RH  055%=      5-min Rain = 0
KPD4 181242Z 21007KT 06/M02 A2966 RMK A01 T00641020  RH  055%=      5-min Rain = 0
KPD4 181243Z 21008KT 06/M02 A2966 RMK A01 T00631020  RH  055%=      5-min Rain = 0
KPD4 181244Z 20007KT 06/M02 A2966 RMK A01 T00631020  RH  055%=      5-min Rain = 0
KPD4 181245Z 21007KT 06/M02 A2966 RMK A01 T00631020  RH  055%=      5-min Rain = 0
KPD4 181246Z 21007KT 06/M02 A2966 RMK A01 T00631020  RH  055%=      5-min Rain = 0
KPD4 181247Z 22006KT 06/M02 A2966 RMK A01 T00631020  RH  055%=      5-min Rain = 0
KPD4 181248Z 22005KT 06/M02 A2966 RMK A01 T00631020  RH  055%=      5-min Rain = 0
KPD4 181249Z 23005KT 06/M02 A2966 RMK A01 T00631021  RH  055%=      5-min Rain = 0
KPD4 181250Z 23006KT 06/M02 A2966 RMK A01 T00631020  RH  055%=      5-min Rain = 0
KPD4 181251Z 22006KT 06/M02 A2966 RMK A01 T00631020  RH  055%=      5-min Rain = 0
KPD4 181252Z 22007KT 06/M02 A2966 RMK A01 T00631020  RH  055%=      5-min Rain = 0
KPD4 181253Z 22008KT 06/M02 A2966 RMK A01 T00631020  RH  055%=      5-min Rain = 0
KPD4 181254Z 21008KT 06/M02 A2966 RMK A01 T00631020  RH  055%=      5-min Rain = 0
KPD4 181255Z 21009KT 06/M02 A2966 RMK A01 T00631020  RH  055%=      5-min Rain = 0
KPD4 181256Z 20009KT 06/M02 A2966 RMK A01 T00631020  RH  055%=      5-min Rain = 0
KPD4 181257Z 20008KT 06/M02 A2966 RMK A01 T00631020  RH  056%=      5-min Rain = 0
KPD4 181258Z 20008KT 06/M02 A2966 RMK A01 T00621020  RH  056%=      5-min Rain = 0
KPD4 181259Z 21007KT 06/M02 A2966 RMK A01 T00611020  RH  056%=      5-min Rain = 0
KPD4 181300Z 20007KT 06/M02 A2966 RMK A01 T00611020  RH  056%=      5-min Rain = 0
KPD4 181301Z 20007KT 06/M02 A2966 RMK A01 T00601020  RH  057%=      5-min Rain = 0
KPD4 181302Z 20007KT 06/M02 A2966 RMK A01 T00591020  RH  057%=      5-min Rain = 0
KPD4 181303Z 20007KT 06/M02 A2966 RMK A01 T00581020  RH  057%=      5-min Rain = 0
KPD4 181304Z 20008KT 06/M02 A2966 RMK A01 T00581020  RH  057%=      5-min Rain = 0
KPD4 181305Z 20008KT 06/M02 A2966 RMK A01 T00581019  RH  057%=      5-min Rain = 0
KPD4 181306Z 20009KT 06/M02 A2966 RMK A01 T00581019  RH  057%=      5-min Rain = 0
KPD4 181307Z 20009KT 06/M02 A2966 RMK A01 T00581019  RH  057%=      5-min Rain = 0
KPD4 181308Z 20009KT 06/M02 A2966 RMK A01 T00581019  RH  057%=      5-min Rain = 0
KPD4 181309Z 20008KT 06/M02 A2966 RMK A01 T00581019  RH  057%=      5-min Rain = 0
KPD4 181310Z 20009KT 06/M02 A2966 RMK A01 T00581020  RH  058%=      5-min Rain = 0
KPD4 181311Z 20009KT 06/M02 A2966 RMK A01 T00581020  RH  057%=      5-min Rain = 0
KPD4 181312Z 20009KT 06/M02 A2966 RMK A01 T00581020  RH  057%=      5-min Rain = 0
KPD4 181313Z 20008KT 06/M02 A2966 RMK A01 T00581019  RH  058%=      5-min Rain = 0
KPD4 181314Z 21008KT 06/M02 A2966 RMK A01 T00571020  RH  058%=      5-min Rain = 0
KPD4 181315Z 21008KT 06/M02 A2965 RMK A01 T00571019  RH  058%=      5-min Rain = 0
KPD4 181316Z 21009KT 06/M02 A2965 RMK A01 T00571020  RH  058%=      5-min Rain = 0
KPD4 181317Z 22010KT 06/M02 A2965 RMK A01 T00571020  RH  058%=      5-min Rain = 0
KPD4 181318Z 21010KT 06/M02 A2965 RMK A01 T00581019  RH  058%=      5-min Rain = 0
KPD4 181319Z 21010KT 06/M02 A2965 RMK A01 T00581019  RH  058%=      5-min Rain = 0
KPD4 181320Z 21010KT 06/M02 A2965 RMK A01 T00581019  RH  058%=      5-min Rain = 0
KPD4 181321Z 22009KT 06/M02 A2965 RMK A01 T00581018  RH  058%=      5-min Rain = 0
KPD4 181322Z 22009KT 06/M02 A2966 RMK A01 T00581019  RH  058%=      5-min Rain = 0
KPD4 181323Z 23009KT 06/M02 A2966 RMK A01 T00581019  RH  058%=      5-min Rain = 0
KPD4 181324Z 22010KT 06/M02 A2966 RMK A01 T00581019  RH  058%=      5-min Rain = 0
KPD4 181325Z 22010KT 06/M02 A2966 RMK A01 T00591018  RH  058%=      5-min Rain = 0
KPD4 181326Z 22010KT 06/M02 A2966 RMK A01 T00601018  RH  058%=      5-min Rain = 0
KPD4 181327Z 21010KT 06/M02 A2966 RMK A01 T00601017  RH  058%=      5-min Rain = 0
KPD4 181328Z 21010KT 06/M02 A2966 RMK A01 T00601017  RH  058%=      5-min Rain = 0
KPD4 181329Z 21009KT 06/M02 A2966 RMK A01 T00601017  RH  058%=      5-min Rain = 0
KPD4 181330Z 21009KT 06/M02 A2966 RMK A01 T00601017  RH  058%=      5-min Rain = 0
KPD4 181331Z 20010KT 06/M02 A2966 RMK A01 T00601017  RH  058%=      5-min Rain = 0
KPD4 181332Z 20010KT 06/M02 A2966 RMK A01 T00601017  RH  058%=      5-min Rain = 0
KPD4 181333Z 19009KT 06/M02 A2966 RMK A01 T00591017  RH  058%=      5-min Rain = 0
KPD4 181334Z 19008KT 06/M02 A2966 RMK A01 T00591017  RH  058%=      5-min Rain = 0
KPD4 181335Z 20009KT 06/M02 A2965 RMK A01 T00581018  RH  058%=      5-min Rain = 0
KPD4 181336Z 20007KT 06/M02 A2965 RMK A01 T00581018  RH  058%=      5-min Rain = 0
KPD4 181337Z 20008KT 06/M02 A2965 RMK A01 T00571018  RH  059%=      5-min Rain = 0
KPD4 181338Z 20008KT 06/M02 A2965 RMK A01 T00561018  RH  059%=      5-min Rain = 0
KPD4 181339Z 20009KT 06/M02 A2965 RMK A01 T00561018  RH  059%=      5-min Rain = 0
KPD4 181340Z 21009KT 06/M02 A2965 RMK A01 T00561017  RH  059%=      5-min Rain = 0
KPD4 181341Z 21010KT 06/M02 A2965 RMK A01 T00561017  RH  059%=      5-min Rain = 0
KPD4 181342Z 21009KT 06/M02 A2965 RMK A01 T00561017  RH  059%=      5-min Rain = 0
KPD4 181343Z 21010KT 06/M02 A2965 RMK A01 T00571017  RH  059%=      5-min Rain = 0
KPD4 181344Z 21009KT 06/M02 A2965 RMK A01 T00571017  RH  059%=      5-min Rain = 0
KPD4 181345Z 21010KT 06/M02 A2965 RMK A01 T00581017  RH  059%=      5-min Rain = 0
KPD4 181346Z 21009KT 06/M02 A2965 RMK A01 T00571017  RH  059%=      5-min Rain = 0
KPD4 181347Z 21009KT 06/M02 A2965 RMK A01 T00571017  RH  059%=      5-min Rain = 0
KPD4 181348Z 21008KT 06/M02 A2965 RMK A01 T00571016  RH  059%=      5-min Rain = 0
KPD4 181349Z 21008KT 06/M02 A2965 RMK A01 T00571016  RH  059%=      5-min Rain = 0
KPD4 181350Z 21009KT 06/M02 A2965 RMK A01 T00581016  RH  059%=      5-min Rain = 0
KPD4 181351Z 21009KT 06/M02 A2965 RMK A01 T00571016  RH  059%=      5-min Rain = 0
KPD4 181352Z 21011KT 06/M02 A2965 RMK A01 T00581016  RH  059%=      5-min Rain = 0
KPD4 181353Z 21010KT 06/M02 A2965 RMK A01 T00581016  RH  059%=      5-min Rain = 0
KPD4 181354Z 22011KT 06/M02 A2965 RMK A01 T00581016  RH  059%=      5-min Rain = 0
KPD4 181355Z 21010KT 06/M02 A2965 RMK A01 T00581015  RH  059%=      5-min Rain = 0
KPD4 181356Z 21011KT 06/M02 A2965 RMK A01 T00581015  RH  059%=      5-min Rain = 0
KPD4 181357Z 21011KT 06/M02 A2965 RMK A01 T00581015  RH  059%=      5-min Rain = 0
KPD4 181358Z 22011KT 06/M02 A2965 RMK A01 T00601015  RH  059%=      5-min Rain = 0
KPD4 181359Z 21011KT 06/M01 A2965 RMK A01 T00601014  RH  059%=      5-min Rain = 0
KPD4 181400Z 21011KT 06/M01 A2965 RMK A01 T00611014  RH  058%=      5-min Rain = 0
KPD4 181401Z 21010KT 06/M01 A2965 RMK A01 T00611014  RH  058%=      5-min Rain = 0
KPD4 181402Z 21010KT 06/M01 A2965 RMK A01 T00621014  RH  058%=      5-min Rain = 0
KPD4 181403Z 21010KT 06/M01 A2965 RMK A01 T00621014  RH  058%=      5-min Rain = 0
KPD4 181404Z 21010KT 06/M01 A2965 RMK A01 T00611014  RH  058%=      5-min Rain = 0
KPD4 181405Z 21010KT 06/M01 A2965 RMK A01 T00611014  RH  058%=      5-min Rain = 0
KPD4 181406Z 22011KT 06/M01 A2965 RMK A01 T00611014  RH  058%=      5-min Rain = 0
KPD4 181407Z 22010KT 06/M01 A2964 RMK A01 T00621014  RH  058%=      5-min Rain = 0
KPD4 181408Z 23010KT 06/M01 A2964 RMK A01 T00631014  RH  058%=      5-min Rain = 0
KPD4 181409Z 21011KT 06/M01 A2965 RMK A01 T00641014  RH  057%=      5-min Rain = 0
KPD4 181410Z 21011KT 07/M01 A2965 RMK A01 T00651013  RH  057%=      5-min Rain = 0
KPD4 181411Z 21010KT 07/M01 A2965 RMK A01 T00651013  RH  057%=      5-min Rain = 0
KPD4 181412Z 21010KT 07/M01 A2965 RMK A01 T00651013  RH  057%=      5-min Rain = 0
KPD4 181413Z 22010KT 07/M01 A2965 RMK A01 T00661013  RH  057%=      5-min Rain = 0
KPD4 181414Z 22010KT 07/M01 A2965 RMK A01 T00661013  RH  057%=      5-min Rain = 0
KPD4 181415Z 21010KT 07/M01 A2965 RMK A01 T00671012  RH  057%=      5-min Rain = 0
KPD4 181416Z 22011KT 07/M01 A2965 RMK A01 T00671013  RH  057%=      5-min Rain = 0
KPD4 181417Z 21010KT 07/M01 A2965 RMK A01 T00681012  RH  057%=      5-min Rain = 0
KPD4 181418Z 22010KT 07/M01 A2965 RMK A01 T00681012  RH  056%=      5-min Rain = 0
KPD4 181419Z 22009KT 07/M01 A2965 RMK A01 T00701012  RH  056%=      5-min Rain = 0
KPD4 181420Z 22009KT 07/M01 A2965 RMK A01 T00701011  RH  056%=      5-min Rain = 0
KPD4 181421Z 21009KT 07/M01 A2965 RMK A01 T00711011  RH  056%=      5-min Rain = 0
KPD4 181422Z 21008KT 07/M01 A2965 RMK A01 T00711011  RH  056%=      5-min Rain = 0
KPD4 181423Z 21008KT 07/M01 A2965 RMK A01 T00711011  RH  056%=      5-min Rain = 0
KPD4 181424Z 21009KT 07/M01 A2965 RMK A01 T00711011  RH  056%=      5-min Rain = 0
KPD4 181425Z 21008KT 07/M01 A2965 RMK A01 T00711011  RH  056%=      5-min Rain = 0
KPD4 181426Z 21009KT 07/M01 A2965 RMK A01 T00711011  RH  056%=      5-min Rain = 0
KPD4 181427Z 22008KT 07/M01 A2965 RMK A01 T00711011  RH  056%=      5-min Rain = 0
KPD4 181428Z 21008KT 07/M01 A2965 RMK A01 T00711011  RH  056%=      5-min Rain = 0
KPD4 181429Z 21008KT 07/M01 A2965 RMK A01 T00711011  RH  056%=      5-min Rain = 0
KPD4 181430Z 21009KT 07/M01 A2964 RMK A01 T00711011  RH  056%=      5-min Rain = 0
KPD4 181431Z 21009KT 07/M01 A2964 RMK A01 T00721011  RH  056%=      5-min Rain = 0
KPD4 181432Z 22008KT 07/M01 A2964 RMK A01 T00731011  RH  056%=      5-min Rain = 0
KPD4 181433Z 21010KT 07/M01 A2964 RMK A01 T00731011  RH  055%=      5-min Rain = 0
KPD4 181434Z 21009KT 07/M01 A2964 RMK A01 T00731010  RH  055%=      5-min Rain = 0
KPD4 181435Z 21009KT 07/M01 A2964 RMK A01 T00731010  RH  055%=      5-min Rain = 0
KPD4 181436Z 21009KT 07/M01 A2964 RMK A01 T00741010  RH  055%=      5-min Rain = 0
KPD4 181437Z 21008KT 07/M01 A2964 RMK A01 T00741010  RH  055%=      5-min Rain = 0
KPD4 181438Z 21008KT 07/M01 A2964 RMK A01 T00731010  RH  055%=      5-min Rain = 0
KPD4 181439Z 21008KT 07/M01 A2964 RMK A01 T00731010  RH  056%=      5-min Rain = 0
KPD4 181440Z 21009KT 07/M01 A2964 RMK A01 T00741010  RH  056%=      5-min Rain = 0
KPD4 181441Z 21010KT 07/M01 A2964 RMK A01 T00741009  RH  056%=      5-min Rain = 0
KPD4 181442Z 21010KT 08/M01 A2964 RMK A01 T00751009  RH  055%=      5-min Rain = 0
KPD4 181443Z 21010KT 08/M01 A2964 RMK A01 T00761009  RH  055%=      5-min Rain = 0
KPD4 181444Z 21010KT 08/M01 A2964 RMK A01 T00771008  RH  055%=      5-min Rain = 0
KPD4 181445Z 21010KT 08/M01 A2964 RMK A01 T00781008  RH  054%=      5-min Rain = 0
KPD4 181446Z 21010KT 08/M01 A2965 RMK A01 T00791008  RH  054%=      5-min Rain = 0
KPD4 181447Z 21010KT 08/M01 A2964 RMK A01 T00801007  RH  054%=      5-min Rain = 0
KPD4 181448Z 21010KT 08/M01 A2965 RMK A01 T00801007  RH  054%=      5-min Rain = 0
KPD4 181449Z 20009KT 08/M01 A2965 RMK A01 T00801007  RH  054%=      5-min Rain = 0
KPD4 181450Z 20009KT 08/M01 A2964 RMK A01 T00811007  RH  054%=      5-min Rain = 0
KPD4 181451Z 20008KT 08/M01 A2964 RMK A01 T00811007  RH  054%=      5-min Rain = 0
KPD4 181452Z 20008KT 08/M01 A2964 RMK A01 T00811007  RH  054%=      5-min Rain = 0
KPD4 181453Z 20008KT 08/M01 A2964 RMK A01 T00811007  RH  054%=      5-min Rain = 0
KPD4 181454Z 20008KT 08/M01 A2964 RMK A01 T00811007  RH  054%=      5-min Rain = 0
KPD4 181455Z 20008KT 08/M01 A2964 RMK A01 T00811006  RH  054%=      5-min Rain = 0
KPD4 181456Z 20008KT 08/M01 A2964 RMK A01 T00811007  RH  054%=      5-min Rain = 0
KPD4 181457Z 20008KT 08/M01 A2964 RMK A01 T00811006  RH  054%=      5-min Rain = 0
KPD4 181458Z 20008KT 08/M01 A2964 RMK A01 T00811005  RH  054%=      5-min Rain = 0
KPD4 181459Z 21007KT 08/M01 A2964 RMK A01 T00811006  RH  054%=      5-min Rain = 0
KPD4 181500Z 20008KT 08/M01 A2964 RMK A01 T00811006  RH  054%=      5-min Rain = 0
KPD4 181501Z 21007KT 08/M01 A2964 RMK A01 T00821006  RH  054%=      5-min Rain = 0
KPD4 181502Z 21007KT 08/M01 A2964 RMK A01 T00821005  RH  054%=      5-min Rain = 0
KPD4 181503Z 22007KT 08/M01 A2964 RMK A01 T00831005  RH  054%=      5-min Rain = 0
KPD4 181504Z 22008KT 08/M01 A2964 RMK A01 T00831005  RH  054%=      5-min Rain = 0
KPD4 181505Z 22008KT 08/M00 A2964 RMK A01 T00841004  RH  054%=      5-min Rain = 0
KPD4 181506Z 22008KT 08/M00 A2964 RMK A01 T00841004  RH  054%=      5-min Rain = 0
KPD4 181507Z 22009KT 09/M00 A2964 RMK A01 T00851004  RH  053%=      5-min Rain = 0
KPD4 181508Z 22008KT 09/M00 A2964 RMK A01 T00861004  RH  053%=      5-min Rain = 0
KPD4 181509Z 22009KT 09/M00 A2964 RMK A01 T00871003  RH  053%=      5-min Rain = 0
KPD4 181510Z 22009KT 09/M00 A2964 RMK A01 T00881003  RH  053%=      5-min Rain = 0
KPD4 181511Z 23010KT 09/M00 A2964 RMK A01 T00891003  RH  052%=      5-min Rain = 0
KPD4 181512Z 22010KT 09/M00 A2964 RMK A01 T00901003  RH  052%=      5-min Rain = 0
KPD4 181513Z 22009KT 09/M00 A2964 RMK A01 T00911002  RH  052%=      5-min Rain = 0
KPD4 181514Z 22010KT 09/M00 A2964 RMK A01 T00911002  RH  052%=      5-min Rain = 0
KPD4 181515Z 22009KT 09/M00 A2964 RMK A01 T00921002  RH  052%=      5-min Rain = 0
KPD4 181516Z 22009KT 09/M00 A2964 RMK A01 T00921002  RH  052%=      5-min Rain = 0
KPD4 181517Z 22011KT 09/M00 A2964 RMK A01 T00921001  RH  052%=      5-min Rain = 0
KPD4 181518Z 22011KT 09/M00 A2964 RMK A01 T00931001  RH  052%=      5-min Rain = 0
KPD4 181519Z 22012KT 09/M00 A2964 RMK A01 T00931001  RH  052%=      5-min Rain = 0
KPD4 181520Z 22012KT 09/M00 A2964 RMK A01 T00941001  RH  051%=      5-min Rain = 0
KPD4 181521Z 22011KT 09/M00 A2964 RMK A01 T00941001  RH  051%=      5-min Rain = 0
KPD4 181522Z 22011KT 10/M00 A2964 RMK A01 T00951001  RH  051%=      5-min Rain = 0
KPD4 181523Z 22011KT 10/M00 A2964 RMK A01 T00951001  RH  051%=      5-min Rain = 0
KPD4 181524Z 22011KT 10/M00 A2964 RMK A01 T00951001  RH  051%=      5-min Rain = 0
KPD4 181525Z 22013KT 10/00 A2964 RMK A01 T009500-0  RH  051%=      5-min Rain = 0
KPD4 181526Z 22012KT 10/00 A2964 RMK A01 T009500-0  RH  051%=      5-min Rain = 0
KPD4 181527Z 22012KT 10/00 A2964 RMK A01 T009600-0  RH  051%=      5-min Rain = 0
KPD4 181528Z 22012KT 10/00 A2964 RMK A01 T00960000  RH  051%=      5-min Rain = 0
KPD4 181529Z 22013KT 10/00 A2964 RMK A01 T00960000  RH  051%=      5-min Rain = 0
KPD4 181530Z 22011KT 10/00 A2964 RMK A01 T00960001  RH  051%=      5-min Rain = 0
KPD4 181531Z 22011KT 10/00 A2964 RMK A01 T00960001  RH  051%=      5-min Rain = 0
KPD4 181532Z 22011KT 10/00 A2964 RMK A01 T00960001  RH  051%=      5-min Rain = 0
KPD4 181533Z 22011KT 10/00 A2964 RMK A01 T00970001  RH  051%=      5-min Rain = 0
KPD4 181534Z 22011KT 10/00 A2964 RMK A01 T00970001  RH  051%=      5-min Rain = 0
KPD4 181535Z 22010KT 10/00 A2964 RMK A01 T00970001  RH  051%=      5-min Rain = 0
KPD4 181536Z 22009KT 10/00 A2964 RMK A01 T00980002  RH  051%=      5-min Rain = 0
KPD4 181537Z 22010KT 10/00 A2964 RMK A01 T00990003  RH  051%=      5-min Rain = 0
KPD4 181538Z 22010KT 10/00 A2964 RMK A01 T00990004  RH  051%=      5-min Rain = 0
KPD4 181539Z 22012KT 10/00 A2964 RMK A01 T01000003  RH  051%=      5-min Rain = 0
KPD4 181540Z 22012KT 10/00 A2964 RMK A01 T01010003  RH  051%=      5-min Rain = 0
KPD4 181541Z 22012KT 10/00 A2964 RMK A01 T01020003  RH  050%=      5-min Rain = 0
KPD4 181542Z 23011KT 10/00 A2964 RMK A01 T01020003  RH  050%=      5-min Rain = 0
KPD4 181543Z 22012KT 10/00 A2964 RMK A01 T01030004  RH  050%=      5-min Rain = 0
KPD4 181544Z 23010KT 10/00 A2964 RMK A01 T01030004  RH  050%=      5-min Rain = 0
KPD4 181545Z 23012KT 10/01 A2964 RMK A01 T01040005  RH  050%=      5-min Rain = 0
KPD4 181546Z 23011KT 11/00 A2964 RMK A01 T01050004  RH  050%=      5-min Rain = 0
KPD4 181547Z 24011KT 11/01 A2964 RMK A01 T01050005  RH  050%=      5-min Rain = 0
KPD4 181548Z 23011KT 11/01 A2964 RMK A01 T01060006  RH  050%=      5-min Rain = 0
KPD4 181549Z 24012KT 11/01 A2964 RMK A01 T01060006  RH  050%=      5-min Rain = 0
KPD4 181550Z 24013KT 11/01 A2964 RMK A01 T01070005  RH  049%=      5-min Rain = 0
KPD4 181551Z 24012KT 11/01 A2964 RMK A01 T01070005  RH  049%=      5-min Rain = 0
KPD4 181552Z 24013KT 11/01 A2964 RMK A01 T01080006  RH  050%=      5-min Rain = 0
KPD4 181553Z 24014KT 11/01 A2964 RMK A01 T01080006  RH  049%=      5-min Rain = 0
KPD4 181554Z 24012KT 11/01 A2964 RMK A01 T01080005  RH  049%=      5-min Rain = 0
KPD4 181555Z 24011KT 11/01 A2964 RMK A01 T01080006  RH  049%=      5-min Rain = 0
KPD4 181556Z 25014KT 11/01 A2964 RMK A01 T01090007  RH  049%=      5-min Rain = 0
KPD4 181557Z 25013KT 11/01 A2964 RMK A01 T01080006  RH  049%=      5-min Rain = 0
KPD4 181558Z 25014KT 11/01 A2964 RMK A01 T01090007  RH  049%=      5-min Rain = 0
KPD4 181559Z 24015KT 11/01 A2964 RMK A01 T01080006  RH  049%=      5-min Rain = 0
KPD4 181600Z 24014KT 11/01 A2964 RMK A01 T01080006  RH  049%=      5-min Rain = 0
KPD4 181601Z 25013KT 11/01 A2964 RMK A01 T01090007  RH  049%=      5-min Rain = 0
KPD4 181602Z 25015KT 11/01 A2964 RMK A01 T01080006  RH  049%=      5-min Rain = 0
KPD4 181603Z 25011KT 11/01 A2964 RMK A01 T01080007  RH  050%=      5-min Rain = 0
KPD4 181604Z 25010KT 11/01 A2964 RMK A01 T01080008  RH  050%=      5-min Rain = 0
KPD4 181605Z 24011KT 11/01 A2964 RMK A01 T01090009  RH  050%=      5-min Rain = 0
KPD4 181606Z 25013KT 11/01 A2964 RMK A01 T01090009  RH  050%=      5-min Rain = 0
KPD4 181607Z 24012KT 11/01 A2963 RMK A01 T01090009  RH  050%=      5-min Rain = 0
KPD4 181608Z 25009KT 11/01 A2963 RMK A01 T01090010  RH  050%=      5-min Rain = 0
KPD4 181609Z 25010KT 11/01 A2963 RMK A01 T01100010  RH  050%=      5-min Rain = 0
KPD4 181610Z 26009KT 11/01 A2963 RMK A01 T01100010  RH  050%=      5-min Rain = 0
KPD4 181611Z 25010KT 11/01 A2963 RMK A01 T01090009  RH  050%=      5-min Rain = 0
KPD4 181612Z 25012KT 11/01 A2963 RMK A01 T01100010  RH  050%=      5-min Rain = 0
KPD4 181613Z 25011KT 11/01 A2963 RMK A01 T01100009  RH  050%=      5-min Rain = 0
KPD4 181614Z 26009KT 11/01 A2963 RMK A01 T01100011  RH  050%=      5-min Rain = 0
KPD4 181615Z 25010KT 11/01 A2963 RMK A01 T01110012  RH  050%=      5-min Rain = 0
KPD4 181616Z 25012KT 11/01 A2963 RMK A01 T01110010  RH  050%=      5-min Rain = 0
KPD4 181617Z 25011KT 11/01 A2963 RMK A01 T01110010  RH  050%=      5-min Rain = 0
KPD4 181618Z 26012KT 11/01 A2963 RMK A01 T01110010  RH  050%=      5-min Rain = 0
KPD4 181619Z 25012KT 11/01 A2963 RMK A01 T01100011  RH  050%=      5-min Rain = 0
KPD4 181620Z 26012KT 11/01 A2963 RMK A01 T01110011  RH  050%=      5-min Rain = 0
KPD4 181621Z 26011KT 11/01 A2964 RMK A01 T01110012  RH  051%=      5-min Rain = 0
KPD4 181622Z 26012KT 11/01 A2963 RMK A01 T01110012  RH  050%=      5-min Rain = 0
KPD4 181623Z 25011KT 11/01 A2963 RMK A01 T01110011  RH  050%=      5-min Rain = 0
KPD4 181624Z 25010KT 11/01 A2963 RMK A01 T01110012  RH  051%=      5-min Rain = 0
KPD4 181625Z 25009KT 11/01 A2963 RMK A01 T01110012  RH  051%=      5-min Rain = 0
KPD4 181626Z 25009KT 11/01 A2963 RMK A01 T01110012  RH  051%=      5-min Rain = 0
KPD4 181627Z 25010KT 11/01 A2963 RMK A01 T01110012  RH  050%=      5-min Rain = 0
KPD4 181628Z 25010KT 11/01 A2963 RMK A01 T01120013  RH  051%=      5-min Rain = 0
KPD4 181629Z 25011KT 11/01 A2963 RMK A01 T01110012  RH  050%=      5-min Rain = 0
KPD4 181630Z 25010KT 11/01 A2963 RMK A01 T01120013  RH  051%=      5-min Rain = 0
KPD4 181631Z 25010KT 11/01 A2963 RMK A01 T01120013  RH  050%=      5-min Rain = 0
KPD4 181632Z 25009KT 11/01 A2963 RMK A01 T01120012  RH  050%=      5-min Rain = 0
KPD4 181633Z 26009KT 11/01 A2963 RMK A01 T01130014  RH  051%=      5-min Rain = 0
KPD4 181634Z 26011KT 11/01 A2964 RMK A01 T01140014  RH  050%=      5-min Rain = 0
KPD4 181635Z 26010KT 11/01 A2964 RMK A01 T01140013  RH  050%=      5-min Rain = 0
KPD4 181636Z 26010KT 11/01 A2964 RMK A01 T01140013  RH  050%=      5-min Rain = 0
KPD4 181637Z 27010KT 11/01 A2964 RMK A01 T01140013  RH  050%=      5-min Rain = 0
KPD4 181638Z 26010KT 11/01 A2964 RMK A01 T01140013  RH  050%=      5-min Rain = 0
KPD4 181639Z 26011KT 11/01 A2964 RMK A01 T01140012  RH  050%=      5-min Rain = 0
KPD4 181640Z 26009KT 11/01 A2964 RMK A01 T01140013  RH  050%=      5-min Rain = 0
KPD4 181641Z 26009KT 11/01 A2964 RMK A01 T01140014  RH  050%=      5-min Rain = 0
KPD4 181642Z 26011KT 11/01 A2964 RMK A01 T01140014  RH  050%=      5-min Rain = 0
KPD4 181643Z 26009KT 11/01 A2964 RMK A01 T01140014  RH  050%=      5-min Rain = 0
KPD4 181644Z 26012KT 12/02 A2964 RMK A01 T01150015  RH  050%=      5-min Rain = 0
KPD4 181645Z 26012KT 12/02 A2964 RMK A01 T01160015  RH  050%=      5-min Rain = 0
KPD4 181646Z 27010KT 12/01 A2964 RMK A01 T01160014  RH  049%=      5-min Rain = 0
KPD4 181647Z 26012KT 12/01 A2964 RMK A01 T01160014  RH  049%=      5-min Rain = 0
KPD4 181648Z 27013KT 12/01 A2964 RMK A01 T01170013  RH  049%=      5-min Rain = 0
KPD4 181649Z 27014KT 12/01 A2964 RMK A01 T01160011  RH  048%=      5-min Rain = 0
KPD4 181650Z 27012KT 12/01 A2963 RMK A01 T01170011  RH  048%=      5-min Rain = 0
KPD4 181651Z 26010KT 12/01 A2963 RMK A01 T01170012  RH  049%=      5-min Rain = 0
KPD4 181652Z 26010KT 12/01 A2963 RMK A01 T01180014  RH  049%=      5-min Rain = 0
KPD4 181653Z 26011KT 12/02 A2963 RMK A01 T01190015  RH  049%=      5-min Rain = 0
KPD4 181654Z 26010KT 12/01 A2963 RMK A01 T01200014  RH  048%=      5-min Rain = 0
KPD4 181655Z 26009KT 12/02 A2963 RMK A01 T01210016  RH  048%=      5-min Rain = 0
KPD4 181656Z 26012KT 12/02 A2963 RMK A01 T01220015  RH  048%=      5-min Rain = 0
KPD4 181657Z 26013KT 12/02 A2963 RMK A01 T01220015  RH  048%=      5-min Rain = 0
KPD4 181658Z 26013KT 12/01 A2963 RMK A01 T01220014  RH  048%=      5-min Rain = 0
KPD4 181659Z 27010KT 12/01 A2963 RMK A01 T01220014  RH  048%=      5-min Rain = 0
KPD4 181700Z 27012KT 12/01 A2963 RMK A01 T01220014  RH  047%=      5-min Rain = 0
KPD4 181701Z 27012KT 12/01 A2963 RMK A01 T01220013  RH  047%=      5-min Rain = 0
KPD4 181702Z 26011KT 12/01 A2963 RMK A01 T01220013  RH  047%=      5-min Rain = 0
KPD4 181703Z 26011KT 12/01 A2963 RMK A01 T01210012  RH  047%=      5-min Rain = 0
KPD4 181704Z 27011KT 12/01 A2963 RMK A01 T01220012  RH  047%=      5-min Rain = 0
KPD4 181705Z 26013KT 12/01 A2963 RMK A01 T01220012  RH  047%=      5-min Rain = 0
KPD4 181706Z 27013KT 12/01 A2963 RMK A01 T01230011  RH  046%=      5-min Rain = 0
KPD4 181707Z 27010KT 12/01 A2963 RMK A01 T01220011  RH  046%=      5-min Rain = 0
KPD4 181708Z 27011KT 12/01 A2963 RMK A01 T01220012  RH  047%=      5-min Rain = 0
KPD4 181709Z 27010KT 12/01 A2963 RMK A01 T01220011  RH  047%=      5-min Rain = 0
KPD4 181710Z 26014KT 12/01 A2963 RMK A01 T01230012  RH  047%=      5-min Rain = 0
KPD4 181711Z 26012KT 12/01 A2963 RMK A01 T01230012  RH  047%=      5-min Rain = 0
KPD4 181712Z 25012KT 12/01 A2963 RMK A01 T01220013  RH  047%=      5-min Rain = 0
KPD4 181713Z 25013KT 12/01 A2962 RMK A01 T01210013  RH  048%=      5-min Rain = 0
KPD4 181714Z 26011KT 12/01 A2962 RMK A01 T01210013  RH  047%=      5-min Rain = 0
KPD4 181715Z 25011KT 12/01 A2962 RMK A01 T01210014  RH  048%=      5-min Rain = 0
KPD4 181716Z 26015KT 12/01 A2962 RMK A01 T01220013  RH  047%=      5-min Rain = 0
KPD4 181717Z 26014KT 12/01 A2962 RMK A01 T01210011  RH  047%=      5-min Rain = 0
KPD4 181718Z 27012KT 12/01 A2962 RMK A01 T01200012  RH  048%=      5-min Rain = 0
KPD4 181719Z 27012KT 12/01 A2962 RMK A01 T01200012  RH  047%=      5-min Rain = 0
KPD4 181720Z 27011KT 12/01 A2962 RMK A01 T01200012  RH  047%=      5-min Rain = 0
KPD4 181721Z 27010KT 12/01 A2962 RMK A01 T01210013  RH  047%=      5-min Rain = 0
KPD4 181722Z 27010KT 12/01 A2962 RMK A01 T01230013  RH  047%=      5-min Rain = 0
KPD4 181723Z 28011KT 12/01 A2962 RMK A01 T01240014  RH  047%=      5-min Rain = 0
KPD4 181724Z 28012KT 12/01 A2962 RMK A01 T01240013  RH  046%=      5-min Rain = 0
KPD4 181725Z 27013KT 13/01 A2962 RMK A01 T01250012  RH  046%=      5-min Rain = 0
KPD4 181726Z 27012KT 13/01 A2962 RMK A01 T01250012  RH  046%=      5-min Rain = 0
KPD4 181727Z 26010KT 12/01 A2962 RMK A01 T01240012  RH  046%=      5-min Rain = 0
KPD4 181728Z 27010KT 13/01 A2962 RMK A01 T01250014  RH  047%=      5-min Rain = 0
KPD4 181729Z 27012KT 13/01 A2962 RMK A01 T01260013  RH  046%=      5-min Rain = 0
KPD4 181730Z 27012KT 13/01 A2961 RMK A01 T01250012  RH  046%=      5-min Rain = 0
KPD4 181731Z 28012KT 13/01 A2961 RMK A01 T01250013  RH  046%=      5-min Rain = 0
KPD4 181732Z 28013KT 13/01 A2961 RMK A01 T01250013  RH  046%=      5-min Rain = 0
KPD4 181733Z 28012KT 12/01 A2961 RMK A01 T01240012  RH  046%=      5-min Rain = 0
KPD4 181734Z 28011KT 13/01 A2961 RMK A01 T01250014  RH  046%=      5-min Rain = 0
KPD4 181735Z 28013KT 13/01 A2961 RMK A01 T01270014  RH  046%=      5-min Rain = 0
KPD4 181736Z 28014KT 13/01 A2961 RMK A01 T01280013  RH  045%=      5-min Rain = 0
KPD4 181737Z 28015KT 13/01 A2961 RMK A01 T01290014  RH  045%=      5-min Rain = 0
KPD4 181738Z 28013KT 13/01 A2961 RMK A01 T01290013  RH  045%=      5-min Rain = 0
KPD4 181739Z 27012KT 13/01 A2961 RMK A01 T01290013  RH  045%=      5-min Rain = 0
KPD4 181740Z 27014KT 13/01 A2961 RMK A01 T01300013  RH  045%=      5-min Rain = 0
KPD4 181741Z 28013KT 13/01 A2961 RMK A01 T01300013  RH  045%=      5-min Rain = 0
KPD4 181742Z 28015KT 13/01 A2961 RMK A01 T01300012  RH  045%=      5-min Rain = 0
KPD4 181743Z 28015KT 13/01 A2961 RMK A01 T01300011  RH  044%=      5-min Rain = 0
KPD4 181744Z 28016KT 13/01 A2961 RMK A01 T01290009  RH  044%=      5-min Rain = 0
KPD4 181745Z 28014KT 13/01 A2961 RMK A01 T01290010  RH  044%=      5-min Rain = 0
KPD4 181746Z 28013KT 13/01 A2961 RMK A01 T01290010  RH  044%=      5-min Rain = 0
KPD4 181747Z 28015KT 13/01 A296 RMK A01 T01280011  RH  045%=      5-min Rain = 0
KPD4 181748Z 28014KT 13/01 A296 RMK A01 T01290010  RH  044%=      5-min Rain = 0
KPD4 181749Z 28014KT 13/01 A296 RMK A01 T01280010  RH  044%=      5-min Rain = 0
KPD4 181750Z 28013KT 13/01 A296 RMK A01 T01280010  RH  044%=      5-min Rain = 0
KPD4 181751Z 28013KT 13/01 A296 RMK A01 T01280011  RH  045%=      5-min Rain = 0
KPD4 181752Z 28015KT 13/01 A296 RMK A01 T01290011  RH  045%=      5-min Rain = 0
KPD4 181753Z 28012KT 13/01 A296 RMK A01 T01290012  RH  045%=      5-min Rain = 0
KPD4 181754Z 28014KT 13/01 A296 RMK A01 T01310014  RH  045%=      5-min Rain = 0
KPD4 181755Z 28013KT 13/01 A296 RMK A01 T01320013  RH  044%=      5-min Rain = 0
KPD4 181756Z 28013KT 13/01 A296 RMK A01 T01330012  RH  044%=      5-min Rain = 0
KPD4 181757Z 28012KT 14/01 A296 RMK A01 T01350013  RH  043%=      5-min Rain = 0
KPD4 181758Z 28012KT 14/01 A296 RMK A01 T01370012  RH  042%=      5-min Rain = 0
KPD4 181759Z 28013KT 14/01 A296 RMK A01 T01390014  RH  042%=      5-min Rain = 0
KPD4 181800Z 28011KT 14/01 A296 RMK A01 T01390013  RH  042%=      5-min Rain = 0
KPD4 181801Z 28013KT 14/01 A296 RMK A01 T01390011  RH  042%=      5-min Rain = 0
KPD4 181802Z 28014KT 14/01 A296 RMK A01 T01390010  RH  041%=      5-min Rain = 0
KPD4 181803Z 28014KT 14/01 A296 RMK A01 T01390009  RH  041%=      5-min Rain = 0
KPD4 181804Z 28014KT 14/01 A296 RMK A01 T01380009  RH  041%=      5-min Rain = 0
KPD4 181805Z 27014KT 14/01 A296 RMK A01 T01380007  RH  041%=      5-min Rain = 0
KPD4 181806Z 28013KT 14/01 A296 RMK A01 T01380009  RH  041%=      5-min Rain = 0
KPD4 181807Z 27010KT 14/01 A296 RMK A01 T01380010  RH  042%=      5-min Rain = 0
KPD4 181808Z 28012KT 14/01 A296 RMK A01 T01400011  RH  041%=      5-min Rain = 0
KPD4 181809Z 28013KT 14/01 A296 RMK A01 T01410009  RH  041%=      5-min Rain = 0
KPD4 181810Z 28012KT 14/01 A2959 RMK A01 T01400010  RH  041%=      5-min Rain = 0
KPD4 181811Z 28012KT 14/01 A296 RMK A01 T01390008  RH  041%=      5-min Rain = 0
KPD4 181812Z 28011KT 14/01 A296 RMK A01 T01390010  RH  041%=      5-min Rain = 0
KPD4 181813Z 28014KT 14/01 A296 RMK A01 T01410011  RH  041%=      5-min Rain = 0
KPD4 181814Z 29015KT 14/01 A2959 RMK A01 T01420010  RH  041%=      5-min Rain = 0
KPD4 181815Z 29015KT 14/01 A2959 RMK A01 T01410007  RH  040%=      5-min Rain = 0
KPD4 181816Z 28012KT 14/01 A2959 RMK A01 T01390007  RH  040%=      5-min Rain = 0
KPD4 181817Z 29012KT 14/01 A2959 RMK A01 T01390007  RH  040%=      5-min Rain = 0
KPD4 181818Z 29013KT 14/01 A2959 RMK A01 T01390007  RH  040%=      5-min Rain = 0
KPD4 181819Z 29013KT 14/01 A2959 RMK A01 T01400008  RH  040%=      5-min Rain = 0
KPD4 181820Z 29014KT 14/01 A2959 RMK A01 T01400005  RH  040%=      5-min Rain = 0
KPD4 181821Z 29015KT 14/00 A2959 RMK A01 T01390004  RH  040%=      5-min Rain = 0
KPD4 181822Z 29013KT 14/00 A2959 RMK A01 T01390004  RH  040%=      5-min Rain = 0
KPD4 181823Z 28014KT 14/01 A2959 RMK A01 T01390005  RH  040%=      5-min Rain = 0
KPD4 181824Z 29013KT 14/01 A2959 RMK A01 T01400006  RH  040%=      5-min Rain = 0
KPD4 181825Z 30014KT 14/01 A2959 RMK A01 T01400006  RH  040%=      5-min Rain = 0
KPD4 181826Z 29014KT 14/01 A2959 RMK A01 T01390006  RH  040%=      5-min Rain = 0
KPD4 181827Z 29013KT 14/01 A2959 RMK A01 T01390007  RH  040%=      5-min Rain = 0
KPD4 181828Z 29015KT 14/01 A2959 RMK A01 T01400007  RH  040%=      5-min Rain = 0
KPD4 181829Z 30014KT 14/00 A2959 RMK A01 T01400004  RH  039%=      5-min Rain = 0
KPD4 181830Z 30015KT 14/00 A2959 RMK A01 T01420003  RH  039%=      5-min Rain = 0
KPD4 181831Z 30015KT 14/00 A2959 RMK A01 T01420001  RH  038%=      5-min Rain = 0
KPD4 181832Z 30013KT 14/00 A2959 RMK A01 T01420002  RH  038%=      5-min Rain = 0
KPD4 181833Z 30013KT 14/00 A2959 RMK A01 T01440002  RH  038%=      5-min Rain = 0
KPD4 181834Z 30013KT 15/00 A2959 RMK A01 T01450003  RH  038%=      5-min Rain = 0
KPD4 181835Z 30015KT 15/M00 A2959 RMK A01 T01461001  RH  037%=      5-min Rain = 0
KPD4 181836Z 30015KT 15/M00 A2959 RMK A01 T01461002  RH  036%=      5-min Rain = 0
KPD4 181837Z 30013KT 15/M00 A2959 RMK A01 T01461001  RH  036%=      5-min Rain = 0
KPD4 181838Z 32014KT 15/M00 A2959 RMK A01 T01481002  RH  036%=      5-min Rain = 0
KPD4 181839Z 31015KT 15/M00 A2959 RMK A01 T01491004  RH  035%=      5-min Rain = 0
KPD4 181840Z 31016KT 15/M00 A2959 RMK A01 T01491001  RH  036%=      5-min Rain = 0
KPD4 181841Z 31016KT 15/M00 A2959 RMK A01 T01491001  RH  036%=      5-min Rain = 0
KPD4 181842Z 31014KT 15/M00 A2959 RMK A01 T01471004  RH  035%=      5-min Rain = 0
KPD4 181843Z 30016KT 15/M00 A2959 RMK A01 T01461004  RH  036%=      5-min Rain = 0
KPD4 181844Z 30014KT 15/M00 A2959 RMK A01 T01461004  RH  036%=      5-min Rain = 0
KPD4 181845Z 30013KT 15/M00 A2959 RMK A01 T01461004  RH  036%=      5-min Rain = 0
KPD4 181846Z 31015KT 15/M00 A2959 RMK A01 T01471003  RH  036%=      5-min Rain = 0
KPD4 181847Z 31017KT 15/M00 A2959 RMK A01 T01471004  RH  035%=      5-min Rain = 0
KPD4 181848Z 31016KT 15/M00 A2959 RMK A01 T01461004  RH  036%=      5-min Rain = 0
KPD4 181849Z 30015KT 15/M01 A2959 RMK A01 T01461005  RH  036%=      5-min Rain = 0
KPD4 181850Z 29014KT 15/M01 A2959 RMK A01 T01481005  RH  035%=      5-min Rain = 0
KPD4 181851Z 30014KT 15/M01 A2959 RMK A01 T01501006  RH  034%=      5-min Rain = 0
KPD4 181852Z 29014KT 15/M01 A2959 RMK A01 T01521006  RH  034%=      5-min Rain = 0
KPD4 181853Z 30014KT 15/M01 A2959 RMK A01 T01531007  RH  034%=      5-min Rain = 0
KPD4 181854Z 32013KT 15/M01 A2959 RMK A01 T01531010  RH  033%=      5-min Rain = 0
KPD4 181855Z 31012KT 15/M01 A2959 RMK A01 T01531011  RH  032%=      5-min Rain = 0
KPD4 181856Z 30015KT 15/M01 A2959 RMK A01 T01511010  RH  033%=      5-min Rain = 0
KPD4 181857Z 30013KT 15/M01 A2959 RMK A01 T01501010  RH  033%=      5-min Rain = 0
KPD4 181858Z 30012KT 15/M01 A2959 RMK A01 T01491010  RH  034%=      5-min Rain = 0
KPD4 181859Z 30012KT 15/M01 A2959 RMK A01 T01491013  RH  033%=      5-min Rain = 0
KPD4 181900Z 30012KT 15/M01 A2959 RMK A01 T01491012  RH  033%=      5-min Rain = 0
KPD4 181901Z 30011KT 15/M01 A2959 RMK A01 T01491011  RH  033%=      5-min Rain = 0
KPD4 181902Z 31011KT 15/M01 A2959 RMK A01 T01491011  RH  034%=      5-min Rain = 0
KPD4 181903Z 31013KT 15/M01 A2959 RMK A01 T01481011  RH  033%=      5-min Rain = 0
KPD4 181904Z 32012KT 15/M01 A2959 RMK A01 T01481012  RH  033%=      5-min Rain = 0
KPD4 181905Z 31010KT 15/M01 A2959 RMK A01 T01471014  RH  033%=      5-min Rain = 0
KPD4 181906Z 32012KT 15/M02 A2959 RMK A01 T01461017  RH  033%=      5-min Rain = 0
KPD4 181907Z 32010KT 15/M02 A2959 RMK A01 T01451017  RH  033%=      5-min Rain = 0
KPD4 181908Z 33011KT 15/M02 A2959 RMK A01 T01451017  RH  033%=      5-min Rain = 0
KPD4 181909Z 34014KT 15/M02 A2958 RMK A01 T01451016  RH  033%=      5-min Rain = 0
KPD4 181910Z 34013KT 15/M02 A2958 RMK A01 T01451015  RH  033%=      5-min Rain = 0
KPD4 181911Z 34011KT 14/M01 A2958 RMK A01 T01441014  RH  034%=      5-min Rain = 0
KPD4 181912Z 34013KT 14/M01 A2958 RMK A01 T01441012  RH  034%=      5-min Rain = 0
KPD4 181913Z 34015KT 14/M01 A2958 RMK A01 T01441012  RH  034%=      5-min Rain = 0
KPD4 181914Z 33015KT 14/M01 A2958 RMK A01 T01431012  RH  034%=      5-min Rain = 0
KPD4 181915Z 33015KT 14/M01 A2958 RMK A01 T01421011  RH  035%=      5-min Rain = 0
KPD4 181916Z 33015KT 14/M01 A2958 RMK A01 T01421011  RH  035%=      5-min Rain = 0
KPD4 181917Z 33015KT 14/M01 A2958 RMK A01 T01411011  RH  035%=      5-min Rain = 0
KPD4 181918Z 33015KT 14/M01 A2958 RMK A01 T01411012  RH  035%=      5-min Rain = 0
KPD4 181919Z 33015KT 14/M01 A2958 RMK A01 T01401012  RH  035%=      5-min Rain = 0
KPD4 181920Z 34013KT 14/M01 A2958 RMK A01 T01401011  RH  035%=      5-min Rain = 0
KPD4 181921Z 33013KT 14/M01 A2958 RMK A01 T01411010  RH  035%=      5-min Rain = 0
KPD4 181922Z 33014KT 14/M01 A2958 RMK A01 T01411010  RH  035%=      5-min Rain = 0
KPD4 181923Z 33013KT 14/M01 A2958 RMK A01 T01411012  RH  035%=      5-min Rain = 0
KPD4 181924Z 33015KT 14/M01 A2958 RMK A01 T01401013  RH  035%=      5-min Rain = 0
KPD4 181925Z 33013G18KT 14/M01 A2958 RMK A01 T01401011  RH  035%=      5-min Rain = 0
KPD4 181926Z 33014KT 14/M01 A2958 RMK A01 T01391011  RH  035%=      5-min Rain = 0
KPD4 181927Z 34013KT 14/M01 A2958 RMK A01 T01391010  RH  036%=      5-min Rain = 0
KPD4 181928Z 34016KT 14/M01 A2958 RMK A01 T01391010  RH  036%=      5-min Rain = 0
KPD4 181929Z 33014KT 14/M01 A2958 RMK A01 T01391011  RH  035%=      5-min Rain = 0
KPD4 181930Z 34016KT 14/M01 A2958 RMK A01 T01401009  RH  036%=      5-min Rain = 0
KPD4 181931Z 34016KT 14/M01 A2958 RMK A01 T01391009  RH  036%=      5-min Rain = 0
KPD4 181932Z 35015KT 14/M01 A2958 RMK A01 T01401007  RH  036%=      5-min Rain = 0
KPD4 181933Z 35018KT 14/M01 A2958 RMK A01 T01401007  RH  037%=      5-min Rain = 0
KPD4 181934Z 35019KT 14/M00 A2958 RMK A01 T01381004  RH  037%=      5-min Rain = 0
KPD4 181935Z 36018KT 14/M00 A2958 RMK A01 T01361002  RH  039%=      5-min Rain = 0
KPD4 181936Z 00016G21KT 13/M00 A2958 RMK A01 T01341002  RH  039%=      5-min Rain = 0
KPD4 181937Z 01017KT 13/00 A2958 RMK A01 T013400-0  RH  040%=      5-min Rain = 0
KPD4 181938Z 01021KT 13/00 A2958 RMK A01 T01320001  RH  041%=      5-min Rain = 0
KPD4 181939Z 00019G24KT 13/00 A2958 RMK A01 T01270000  RH  042%=      5-min Rain = 0
KPD4 181940Z 01021KT 13/00 A2958 RMK A01 T012500-0  RH  042%=      5-min Rain = 0
KPD4 181941Z 01022KT 12/M00 A2958 RMK A01 T01221002  RH  043%=      5-min Rain = 0
KPD4 181942Z 01020G25KT 12/M00 A2958 RMK A01 T01191002  RH  043%=      5-min Rain = 0
KPD4 181943Z 00017G24KT 12/00 A2958 RMK A01 T012000-0  RH  044%=      5-min Rain = 0
KPD4 181944Z 01023KT 12/M00 A2958 RMK A01 T01211001  RH  043%=      5-min Rain = 0
KPD4 181945Z 00023KT 12/M00 A2958 RMK A01 T01191003  RH  043%=      5-min Rain = 0
KPD4 181946Z 00018G23KT 12/M00 A2958 RMK A01 T01181002  RH  044%=      5-min Rain = 0
KPD4 181947Z 35021KT 12/00 A2959 RMK A01 T01210001  RH  044%=      5-min Rain = 0
KPD4 181948Z 35023KT 12/M00 A2959 RMK A01 T01211002  RH  043%=      5-min Rain = 0
KPD4 181949Z 00020KT 12/M00 A2959 RMK A01 T01191002  RH  043%=      5-min Rain = 0
KPD4 181950Z 36024G29KT 12/M00 A2959 RMK A01 T01171001  RH  044%=      5-min Rain = 0
KPD4 181951Z 36023KT 11/M00 A2959 RMK A01 T01121003  RH  045%=      5-min Rain = 0
KPD4 181952Z 36021KT 11/M00 A2959 RMK A01 T01081003  RH  046%=      5-min Rain = 0
KPD4 181953Z 36020KT 11/M00 A2959 RMK A01 T01061001  RH  047%=      5-min Rain = 0
KPD4 181954Z 36022G28KT 11/M00 A2959 RMK A01 T01051001  RH  048%=      5-min Rain = 0
KPD4 181955Z 35020G25KT 10/M00 A296 RMK A01 T01021001  RH  049%=      5-min Rain = 0
KPD4 181956Z 35023G28KT 10/M00 A296 RMK A01 T00991002  RH  049%=      5-min Rain = 0
KPD4 181957Z 00021G26KT 10/M00 A296 RMK A01 T00961003  RH  050%=      5-min Rain = 0
KPD4 181958Z 36020G28KT 09/M00 A296 RMK A01 T00931003  RH  051%=      5-min Rain = 0
KPD4 181959Z 00024KT 09/M00 A296 RMK A01 T00911002  RH  052%=      5-min Rain = 0
KPD4 182000Z 35022KT 09/M00 A296 RMK A01 T00901001  RH  053%=      5-min Rain = 0
KPD4 182001Z 36019KT 09/M00 A296 RMK A01 T00881001  RH  054%=      5-min Rain = 0
KPD4 182002Z 35021G27KT 09/00 A296 RMK A01 T00870001  RH  054%=      5-min Rain = 0
KPD4 182003Z 35023KT 09/00 A296 RMK A01 T008600-0  RH  055%=      5-min Rain = 0
KPD4 182004Z 36019G24KT 08/00 A296 RMK A01 T00840001  RH  056%=      5-min Rain = 0
KPD4 182005Z 01021G26KT 08/00 A296 RMK A01 T00830003  RH  057%=      5-min Rain = 0
KPD4 182006Z 01023G28KT 08/00 A2959 RMK A01 T00820002  RH  057%=      5-min Rain = 0
KPD4 182007Z 00020G26KT 08/00 A2959 RMK A01 T00800002  RH  058%=      5-min Rain = 0
KPD4 182008Z 01022G27KT 08/00 A2959 RMK A01 T00810003  RH  058%=      5-min Rain = 0
KPD4 182009Z 01020G26KT 08/00 A2959 RMK A01 T00810002  RH  058%=      5-min Rain = 0
KPD4 182010Z 00023KT 08/00 A2959 RMK A01 T00800002  RH  058%=      5-min Rain = 0
KPD4 182011Z 01025KT 08/00 A2959 RMK A01 T00790003  RH  059%=      5-min Rain = 0
KPD4 182012Z 01025KT 08/00 A2959 RMK A01 T00790003  RH  059%=      5-min Rain = 0
KPD4 182013Z 01024G29KT 08/00 A2959 RMK A01 T00790002  RH  058%=      5-min Rain = 0
KPD4 182014Z 01021KT 08/00 A2959 RMK A01 T00780001  RH  058%=      5-min Rain = 0
KPD4 182015Z 01020G25KT 08/00 A2959 RMK A01 T00780002  RH  059%=      5-min Rain = 0
KPD4 182016Z 00023G29KT 08/00 A2959 RMK A01 T00780002  RH  058%=      5-min Rain = 0
KPD4 182017Z 01025G30KT 08/00 A2959 RMK A01 T00770001  RH  059%=      5-min Rain = 0
KPD4 182018Z 01026KT 07/00 A2959 RMK A01 T007400-0  RH  059%=      5-min Rain = 0
KPD4 182019Z 00025KT 07/00 A2959 RMK A01 T007200-0  RH  060%=      5-min Rain = 0
KPD4 182020Z 00028KT 07/M00 A2959 RMK A01 T00691001  RH  061%=      5-min Rain = 0
KPD4 182021Z 00021G27KT 07/M00 A2959 RMK A01 T00661001  RH  062%=      5-min Rain = 0
KPD4 182022Z 00022G27KT 07/00 A2959 RMK A01 T00660001  RH  063%=      5-min Rain = 0
KPD4 182023Z 01025G30KT 07/00 A2959 RMK A01 T00670002  RH  063%=      5-min Rain = 0
KPD4 182024Z 36025KT 07/00 A2959 RMK A01 T00660002  RH  063%=      5-min Rain = 0
KPD4 182025Z 00022KT 07/00 A2959 RMK A01 T00650002  RH  064%=      5-min Rain = 0
KPD4 182026Z 00025G30KT 07/00 A2959 RMK A01 T00650003  RH  065%=      5-min Rain = 0
KPD4 182027Z 00025KT 06/00 A2959 RMK A01 T00640002  RH  065%=      5-min Rain = 0
KPD4 182028Z 01024G31KT 06/00 A2959 RMK A01 T00620002  RH  065%=      5-min Rain = 0
KPD4 182029Z 01024G29KT 06/00 A2959 RMK A01 T00620002  RH  065%=      5-min Rain = 0
KPD4 182030Z 00023G28KT 06/00 A296 RMK A01 T00630003  RH  066%=      5-min Rain = 0
KPD4 182031Z 36023G28KT 06/00 A296 RMK A01 T00630003  RH  065%=      5-min Rain = 0
KPD4 182032Z 36022G27KT 06/00 A296 RMK A01 T00640003  RH  065%=      5-min Rain = 0
KPD4 182033Z 35020KT 07/01 A296 RMK A01 T00670005  RH  065%=      5-min Rain = 0
KPD4 182034Z 00026KT 07/01 A296 RMK A01 T00690005  RH  063%=      5-min Rain = 0
KPD4 182035Z 35027KT 07/00 A296 RMK A01 T00680003  RH  063%=      5-min Rain = 0
KPD4 182036Z 35026KT 07/00 A2961 RMK A01 T00650002  RH  064%=      5-min Rain = 0
KPD4 182037Z 35025G30KT 06/00 A2961 RMK A01 T00640003  RH  065%=      5-min Rain = 0
KPD4 182038Z 35026KT 07/00 A2962 RMK A01 T00650003  RH  065%=      5-min Rain = 0
KPD4 182039Z 35028KT 07/00 A2962 RMK A01 T00670004  RH  064%=      5-min Rain = 0
KPD4 182040Z 36028KT 07/00 A2962 RMK A01 T00680003  RH  064%=      5-min Rain = 0
KPD4 182041Z 36025KT 07/00 A2962 RMK A01 T00660002  RH  063%=      5-min Rain = 0
KPD4 182042Z 35021G27KT 07/00 A2963 RMK A01 T00650003  RH  065%=      5-min Rain = 0
KPD4 182043Z 01026KT 07/00 A2962 RMK A01 T00680004  RH  064%=      5-min Rain = 0
KPD4 182044Z 01028KT 07/00 A2962 RMK A01 T00660001  RH  063%=      5-min Rain = 0
KPD4 182045Z 00025KT 06/00 A2963 RMK A01 T006100-0  RH  065%=      5-min Rain = 0
KPD4 182046Z 00025KT 06/00 A2963 RMK A01 T00590001  RH  067%=      5-min Rain = 0
KPD4 182047Z 36023G29KT 06/00 A2963 RMK A01 T00590003  RH  067%=      5-min Rain = 0
KPD4 182048Z 35027KT 06/00 A2963 RMK A01 T00630004  RH  066%=      5-min Rain = 0
KPD4 182049Z 35023G28KT 06/00 A2964 RMK A01 T00620002  RH  066%=      5-min Rain = 0
KPD4 182050Z 00025KT 06/00 A2964 RMK A01 T00620003  RH  066%=      5-min Rain = 0
KPD4 182051Z 00023G30KT 06/00 A2964 RMK A01 T00620002  RH  065%=      5-min Rain = 0
KPD4 182052Z 36024G31KT 06/00 A2964 RMK A01 T00600002  RH  066%=      5-min Rain = 0
KPD4 182053Z 00026KT 06/00 A2964 RMK A01 T00590002  RH  067%=      5-min Rain = 0
KPD4 182054Z 00026G31KT 06/00 A2964 RMK A01 T005600-0  RH  067%=      5-min Rain = 0
KPD4 182055Z 00026G31KT 05/00 A2964 RMK A01 T005400-0  RH  068%=      5-min Rain = 0
KPD4 182056Z 00027KT 05/00 A2964 RMK A01 T005300-0  RH  069%=      5-min Rain = 0
KPD4 182057Z 00022KT 05/00 A2964 RMK A01 T00520001  RH  070%=      5-min Rain = 0
KPD4 182058Z 35023KT 05/00 A2965 RMK A01 T00530002  RH  070%=      5-min Rain = 0
KPD4 182059Z 35025G32KT 05/00 A2965 RMK A01 T00530002  RH  070%=      5-min Rain = 0
KPD4 182100Z 35023G29KT 05/00 A2966 RMK A01 T00520001  RH  070%=      5-min Rain = 0
KPD4 182101Z 35023G33KT 05/00 A2966 RMK A01 T00520001  RH  070%=      5-min Rain = 0
KPD4 182102Z 35025G31KT 05/00 A2966 RMK A01 T00530001  RH  069%=      5-min Rain = 0
KPD4 182103Z 35026KT 05/00 A2966 RMK A01 T00520000  RH  069%=      5-min Rain = 0
KPD4 182104Z 35028KT 05/M00 A2966 RMK A01 T00501002  RH  069%=      5-min Rain = 0
KPD4 182105Z 35027KT 05/M00 A2966 RMK A01 T00481002  RH  070%=      5-min Rain = 0
KPD4 182106Z 35027KT 05/M00 A2966 RMK A01 T00461002  RH  071%=      5-min Rain = 0
KPD4 182107Z 34025G30KT 05/M00 A2967 RMK A01 T00451001  RH  072%=      5-min Rain = 0
KPD4 182108Z 34024G31KT 05/M00 A2967 RMK A01 T00451001  RH  072%=      5-min Rain = 0
KPD4 182109Z 35025G30KT 05/00 A2967 RMK A01 T004500-0  RH  072%=      5-min Rain = 0
KPD4 182110Z 34026KT 04/M00 A2967 RMK A01 T00441001  RH  073%=      5-min Rain = 0
KPD4 182111Z 34026KT 04/M00 A2967 RMK A01 T00421001  RH  073%=      5-min Rain = 0
KPD4 182112Z 35025G30KT 04/M00 A2967 RMK A01 T00411002  RH  073%=      5-min Rain = 0
KPD4 182113Z 35022G28KT 04/M00 A2967 RMK A01 T00401002  RH  074%=      5-min Rain = 0
KPD4 182114Z 35024KT 04/M00 A2967 RMK A01 T00401001  RH  074%=      5-min Rain = 0
KPD4 182115Z 35027G32KT 04/M00 A2967 RMK A01 T00401002  RH  074%=      5-min Rain = 0
KPD4 182116Z 35022G29KT 04/M00 A2968 RMK A01 T00391003  RH  074%=      5-min Rain = 0
KPD4 182117Z 35024KT 04/M00 A2968 RMK A01 T00391002  RH  074%=      5-min Rain = 0
KPD4 182118Z 35024KT 04/M00 A2968 RMK A01 T00391003  RH  074%=      5-min Rain = 0
KPD4 182119Z 35025KT 04/M00 A2968 RMK A01 T00381003  RH  075%=      5-min Rain = 0
KPD4 182120Z 35022G27KT 04/M00 A2968 RMK A01 T00371002  RH  076%=      5-min Rain = 0
KPD4 182121Z 35020G25KT 04/M00 A2968 RMK A01 T00361002  RH  076%=      5-min Rain = 0
KPD4 182122Z 34022G28KT 04/M00 A2968 RMK A01 T00361002  RH  076%=      5-min Rain = 0
KPD4 182123Z 35023G28KT 04/M00 A2968 RMK A01 T00361003  RH  075%=      5-min Rain = 0
KPD4 182124Z 34025G31KT 04/M00 A2968 RMK A01 T00351004  RH  076%=      5-min Rain = 0
KPD4 182125Z 35025KT 04/M00 A2968 RMK A01 T00351004  RH  076%=      5-min Rain = 0
KPD4 182126Z 36026G32KT 04/M00 A2968 RMK A01 T00351004  RH  076%=      5-min Rain = 0
KPD4 182127Z 00023KT 03/M01 A2968 RMK A01 T00331005  RH  076%=      5-min Rain = 0
KPD4 182128Z 36023G29KT 03/M00 A2968 RMK A01 T00331004  RH  077%=      5-min Rain = 0
KPD4 182129Z 36026KT 03/M00 A2968 RMK A01 T00331004  RH  077%=      5-min Rain = 0
KPD4 182130Z 35024KT 03/M00 A2968 RMK A01 T00321004  RH  077%=      5-min Rain = 0
KPD4 182131Z 36028KT 03/M00 A2968 RMK A01 T00311004  RH  078%=      5-min Rain = 0
KPD4 182132Z 36026KT 03/M00 A2968 RMK A01 T00311004  RH  078%=      5-min Rain = 0
KPD4 182133Z 36024G30KT 03/M00 A2968 RMK A01 T00311004  RH  078%=      5-min Rain = 0
KPD4 182134Z 35022KT 03/M00 A2969 RMK A01 T00311004  RH  078%=      5-min Rain = 0
KPD4 182135Z 36025G31KT 03/M00 A2969 RMK A01 T00311003  RH  078%=      5-min Rain = 0
KPD4 182136Z 36022G27KT 03/M00 A2969 RMK A01 T00311004  RH  078%=      5-min Rain = 0
KPD4 182137Z 00025KT 03/M00 A2968 RMK A01 T00301004  RH  078%=      5-min Rain = 0
KPD4 182138Z 36025G30KT 03/M00 A2968 RMK A01 T00301004  RH  079%=      5-min Rain = 0
KPD4 182139Z 36024KT 03/M00 A2968 RMK A01 T00291004  RH  079%=      5-min Rain = 0
KPD4 182140Z 00024G31KT 03/M00 A2968 RMK A01 T00291004  RH  079%=      5-min Rain = 0
KPD4 182141Z 01027KT 03/M00 A2968 RMK A01 T00291004  RH  079%=      5-min Rain = 0
KPD4 182142Z 00027G32KT 03/M00 A2968 RMK A01 T00291004  RH  079%=      5-min Rain = 0
KPD4 182143Z 00024G32KT 03/M00 A2968 RMK A01 T00291004  RH  079%=      5-min Rain = 0
KPD4 182144Z 36026KT 03/M00 A2968 RMK A01 T00291004  RH  079%=      5-min Rain = 0
KPD4 182145Z 00022KT 03/M00 A2968 RMK A01 T00291004  RH  079%=      5-min Rain = 0
KPD4 182146Z 00022G27KT 03/M00 A2968 RMK A01 T00291003  RH  079%=      5-min Rain = 0
KPD4 182147Z 01026G31KT 03/M00 A2968 RMK A01 T00291003  RH  079%=      5-min Rain = 0
KPD4 182148Z 01026G31KT 03/M00 A2968 RMK A01 T00281004  RH  079%=      5-min Rain = 0
KPD4 182149Z 00023G28KT 03/M00 A2968 RMK A01 T00281003  RH  080%=      5-min Rain = 0
KPD4 182150Z 01023G28KT 03/M00 A2968 RMK A01 T00281003  RH  080%=      5-min Rain = 0
KPD4 182151Z 00026G31KT 03/M00 A2968 RMK A01 T00281003  RH  080%=      5-min Rain = 0
KPD4 182152Z 00024G29KT 03/M00 A2968 RMK A01 T00281003  RH  080%=      5-min Rain = 0
KPD4 182153Z 01027KT 03/M00 A2968 RMK A01 T00281003  RH  080%=      5-min Rain = 0
KPD4 182154Z 00022KT 03/M00 A2969 RMK A01 T00271004  RH  080%=      5-min Rain = 0
KPD4 182155Z 00024G31KT 03/M00 A2969 RMK A01 T00271003  RH  081%=      5-min Rain = 0
KPD4 182156Z 36024KT 03/M00 A2969 RMK A01 T00271004  RH  080%=      5-min Rain = 0
KPD4 182157Z 00022G29KT 03/M00 A297 RMK A01 T00261004  RH  081%=      5-min Rain = 0
KPD4 182158Z 36024G30KT 03/M00 A297 RMK A01 T00261004  RH  081%=      5-min Rain = 0
KPD4 182159Z 36023G30KT 03/M00 A297 RMK A01 T00251004  RH  081%=      5-min Rain = 0
KPD4 182200Z 36024KT 02/M00 A297 RMK A01 T00241004  RH  082%=      5-min Rain = 0
KPD4 182201Z 36022KT 02/M00 A2971 RMK A01 T00241004  RH  082%=      5-min Rain = 0
KPD4 182202Z 36020G25KT 02/M00 A2971 RMK A01 T00231004  RH  082%=      5-min Rain = 0
KPD4 182203Z 36021KT 02/M00 A2971 RMK A01 T00241004  RH  082%=      5-min Rain = 0
KPD4 182204Z 35018KT 02/M00 A2971 RMK A01 T00241004  RH  082%=      5-min Rain = 0
KPD4 182205Z 36020KT 02/M00 A2972 RMK A01 T00241004  RH  082%=      5-min Rain = 0
KPD4 182206Z 35023KT 02/M00 A2972 RMK A01 T00241004  RH  082%=      5-min Rain = 0
KPD4 182207Z 36023G30KT 02/M00 A2972 RMK A01 T00241004  RH  082%=      5-min Rain = 0
KPD4 182208Z 36025KT 02/M01 A2972 RMK A01 T00231005  RH  082%=      5-min Rain = 0
KPD4 182209Z 36022G27KT 02/M00 A2972 RMK A01 T00231004  RH  082%=      5-min Rain = 0
KPD4 182210Z 36024KT 02/M01 A2973 RMK A01 T00231005  RH  082%=      5-min Rain = 0
KPD4 182211Z 35023KT 02/M01 A2973 RMK A01 T00221005  RH  082%=      5-min Rain = 0
KPD4 182212Z 35025G31KT 02/M01 A2973 RMK A01 T00221006  RH  082%=      5-min Rain = 0
KPD4 182213Z 36027KT 02/M01 A2973 RMK A01 T00211006  RH  082%=      5-min Rain = 0
KPD4 182214Z 00025KT 02/M01 A2973 RMK A01 T00201006  RH  083%=      5-min Rain = 0
KPD4 182215Z 00024G29KT 02/M01 A2973 RMK A01 T00201006  RH  083%=      5-min Rain = 0
KPD4 182216Z 00023G29KT 02/M01 A2973 RMK A01 T00201006  RH  083%=      5-min Rain = 0
KPD4 182217Z 00026G31KT 02/M01 A2972 RMK A01 T00211006  RH  082%=      5-min Rain = 0
KPD4 182218Z 00025G30KT 02/M01 A2972 RMK A01 T00211006  RH  082%=      5-min Rain = 0
KPD4 182219Z 01022G27KT 02/M01 A2972 RMK A01 T00211006  RH  082%=      5-min Rain = 0
KPD4 182220Z 00024G31KT 02/M01 A2973 RMK A01 T00211006  RH  082%=      5-min Rain = 0
KPD4 182221Z 00027KT 02/M01 A2972 RMK A01 T00211006  RH  082%=      5-min Rain = 0
KPD4 182222Z 36026KT 02/M01 A2973 RMK A01 T00211006  RH  082%=      5-min Rain = 0
KPD4 182223Z 00023G28KT 02/M01 A2973 RMK A01 T00211006  RH  082%=      5-min Rain = 0
KPD4 182224Z 35025KT 02/M01 A2973 RMK A01 T00211006  RH  082%=      5-min Rain = 0
KPD4 182225Z 35024KT 02/M01 A2973 RMK A01 T00211006  RH  082%=      5-min Rain = 0
KPD4 182226Z 35027KT 02/M01 A2973 RMK A01 T00211006  RH  082%=      5-min Rain = 0
KPD4 182227Z 36027KT 02/M01 A2973 RMK A01 T00201007  RH  082%=      5-min Rain = 0
KPD4 182228Z 00028KT 02/M01 A2973 RMK A01 T00201007  RH  082%=      5-min Rain = 0
KPD4 182229Z 00022G29KT 02/M01 A2973 RMK A01 T00201007  RH  083%=      5-min Rain = 0
KPD4 182230Z 36030G35KT 02/M01 A2973 RMK A01 T00191007  RH  083%=      5-min Rain = 0
KPD4 182231Z 36029G34KT 02/M01 A2973 RMK A01 T00191008  RH  082%=      5-min Rain = 0
KPD4 182232Z 00027G32KT 02/M01 A2973 RMK A01 T00191008  RH  082%=      5-min Rain = 0
KPD4 182233Z 35027G33KT 02/M01 A2974 RMK A01 T00191007  RH  082%=      5-min Rain = 0
KPD4 182234Z 35028KT 02/M01 A2974 RMK A01 T00191008  RH  082%=      5-min Rain = 0
KPD4 182235Z 36025KT 02/M01 A2974 RMK A01 T00191008  RH  082%=      5-min Rain = 0
KPD4 182236Z 36023KT 02/M01 A2974 RMK A01 T00191008  RH  082%=      5-min Rain = 0
KPD4 182237Z 35022G27KT 02/M01 A2974 RMK A01 T00191008  RH  082%=      5-min Rain = 0
KPD4 182238Z 35021G26KT 02/M01 A2974 RMK A01 T00201007  RH  082%=      5-min Rain = 0
KPD4 182239Z 35025G31KT 02/M01 A2975 RMK A01 T00201007  RH  082%=      5-min Rain = 0
KPD4 182240Z 35029KT 02/M01 A2974 RMK A01 T00201008  RH  082%=      5-min Rain = 0
KPD4 182241Z 36024KT 02/M01 A2975 RMK A01 T00191008  RH  082%=      5-min Rain = 0
KPD4 182242Z 36024G30KT 02/M01 A2975 RMK A01 T00191008  RH  082%=      5-min Rain = 0
KPD4 182243Z 36027G33KT 02/M01 A2975 RMK A01 T00191008  RH  083%=      5-min Rain = 0
KPD4 182244Z 36027KT 02/M01 A2975 RMK A01 T00191008  RH  082%=      5-min Rain = 0
KPD4 182245Z 35024G30KT 02/M01 A2975 RMK A01 T00181008  RH  082%=      5-min Rain = 0
KPD4 182246Z 35026G31KT 02/M01 A2975 RMK A01 T00191008  RH  082%=      5-min Rain = 0
KPD4 182247Z 35025G31KT 02/M01 A2975 RMK A01 T00181009  RH  082%=      5-min Rain = 0
KPD4 182248Z 36025KT 02/M01 A2975 RMK A01 T00181009  RH  082%=      5-min Rain = 0
KPD4 182249Z 00028G33KT 02/M01 A2975 RMK A01 T00181009  RH  082%=      5-min Rain = 0
KPD4 182250Z 00027G32KT 02/M01 A2975 RMK A01 T00181009  RH  082%=      5-min Rain = 0
KPD4 182251Z 35025G30KT 02/M01 A2975 RMK A01 T00181009  RH  083%=      5-min Rain = 0
KPD4 182252Z 36023KT 02/M01 A2975 RMK A01 T00181009  RH  083%=      5-min Rain = 0
KPD4 182253Z 35023KT 02/M01 A2975 RMK A01 T00181008  RH  083%=      5-min Rain = 0
KPD4 182254Z 00021G26KT 02/M01 A2975 RMK A01 T00181008  RH  083%=      5-min Rain = 0
KPD4 182255Z 35019G24KT 02/M01 A2976 RMK A01 T00181008  RH  083%=      5-min Rain = 0
KPD4 182256Z 35022KT 02/M01 A2976 RMK A01 T00181008  RH  083%=      5-min Rain = 0
KPD4 182257Z 35027G32KT 02/M01 A2976 RMK A01 T00181008  RH  083%=      5-min Rain = 0
KPD4 182258Z 35024G31KT 02/M01 A2976 RMK A01 T00171010  RH  083%=      5-min Rain = 0
KPD4 182259Z 35026G32KT 02/M01 A2976 RMK A01 T00171010  RH  083%=      5-min Rain = 0
KPD4 182300Z 35028KT 02/M01 A2976 RMK A01 T00161010  RH  083%=      5-min Rain = 0
KPD4 182301Z 35025G31KT 02/M01 A2976 RMK A01 T00161010  RH  083%=      5-min Rain = 0
KPD4 182302Z 35025G30KT 02/M01 A2977 RMK A01 T00151010  RH  083%=      5-min Rain = 0
KPD4 182303Z 35026KT 02/M01 A2977 RMK A01 T00151010  RH  083%=      5-min Rain = 0
KPD4 182304Z 35027G32KT 02/M01 A2977 RMK A01 T00151010  RH  083%=      5-min Rain = 0
KPD4 182305Z 35026KT 02/M01 A2977 RMK A01 T00151010  RH  083%=      5-min Rain = 0
KPD4 182306Z 35027G32KT 02/M01 A2977 RMK A01 T00151010  RH  083%=      5-min Rain = 0
KPD4 182307Z 36028G33KT 02/M01 A2977 RMK A01 T00151010  RH  083%=      5-min Rain = 0
KPD4 182308Z 00022G28KT 01/M01 A2977 RMK A01 T00141010  RH  084%=      5-min Rain = 0
KPD4 182309Z 36023KT 01/M01 A2977 RMK A01 T00141010  RH  084%=      5-min Rain = 0
KPD4 182310Z 35024G29KT 01/M01 A2977 RMK A01 T00141010  RH  084%=      5-min Rain = 0
KPD4 182311Z 35024G31KT 01/M01 A2977 RMK A01 T00141011  RH  084%=      5-min Rain = 0
KPD4 182312Z 35025KT 01/M01 A2977 RMK A01 T00141011  RH  083%=      5-min Rain = 0
KPD4 182313Z 35024KT 01/M01 A2978 RMK A01 T00141011  RH  083%=      5-min Rain = 0
KPD4 182314Z 36026G33KT 01/M01 A2978 RMK A01 T00141011  RH  083%=      5-min Rain = 0
KPD4 182315Z 00029KT 01/M01 A2978 RMK A01 T00141011  RH  083%=      5-min Rain = 0
KPD4 182316Z 35030G36KT 01/M01 A2978 RMK A01 T00141012  RH  083%=      5-min Rain = 0
KPD4 182317Z 36028KT 01/M01 A2978 RMK A01 T00131012  RH  083%=      5-min Rain = 0
KPD4 182318Z 36025KT 01/M01 A2978 RMK A01 T00131012  RH  083%=      5-min Rain = 0
KPD4 182319Z 00024G29KT 01/M01 A2978 RMK A01 T00131012  RH  083%=      5-min Rain = 0
KPD4 182320Z 36025KT 01/M01 A2978 RMK A01 T00131012  RH  083%=      5-min Rain = 0
KPD4 182321Z 35022G28KT 01/M01 A2978 RMK A01 T00131012  RH  083%=      5-min Rain = 0
KPD4 182322Z 35024KT 01/M01 A2978 RMK A01 T00131012  RH  083%=      5-min Rain = 0
KPD4 182323Z 35022G31KT 01/M01 A2978 RMK A01 T00131012  RH  083%=      5-min Rain = 0
KPD4 182324Z 36026G31KT 01/M01 A2978 RMK A01 T00131012  RH  083%=      5-min Rain = 0
KPD4 182325Z 35027G34KT 01/M01 A2978 RMK A01 T00131013  RH  083%=      5-min Rain = 0
KPD4 182326Z 00022G29KT 01/M01 A2978 RMK A01 T00121013  RH  083%=      5-min Rain = 0
KPD4 182327Z 36025KT 01/M01 A2978 RMK A01 T00121013  RH  084%=      5-min Rain = 0
KPD4 182328Z 36024G29KT 01/M01 A2978 RMK A01 T00121013  RH  084%=      5-min Rain = 0
KPD4 182329Z 36019G25KT 01/M01 A2978 RMK A01 T00121013  RH  084%=      5-min Rain = 0
KPD4 182330Z 36020G28KT 01/M01 A2978 RMK A01 T00121013  RH  084%=      5-min Rain = 0
KPD4 182331Z 00024G31KT 01/M01 A2978 RMK A01 T00121013  RH  084%=      5-min Rain = 0
KPD4 182332Z 35026G31KT 01/M01 A2978 RMK A01 T00121013  RH  083%=      5-min Rain = 0
KPD4 182333Z 00023KT 01/M01 A2978 RMK A01 T00111014  RH  083%=      5-min Rain = 0
KPD4 182334Z 00025KT 01/M01 A2978 RMK A01 T00121013  RH  084%=      5-min Rain = 0
KPD4 182335Z 01027KT 01/M01 A2977 RMK A01 T00121013  RH  083%=      5-min Rain = 0
KPD4 182336Z 00023G28KT 01/M01 A2978 RMK A01 T00111014  RH  083%=      5-min Rain = 0
KPD4 182337Z 00021G30KT 01/M01 A2978 RMK A01 T00111014  RH  084%=      5-min Rain = 0
KPD4 182338Z 36026G33KT 01/M01 A2978 RMK A01 T00111014  RH  083%=      5-min Rain = 0
KPD4 182339Z 35026G32KT 01/M01 A2978 RMK A01 T00111014  RH  083%=      5-min Rain = 0
KPD4 182340Z 36026G37KT 01/M01 A2978 RMK A01 T00111014  RH  083%=      5-min Rain = 0
KPD4 182341Z 00030G35KT 01/M01 A2978 RMK A01 T00111014  RH  083%=      5-min Rain = 0
KPD4 182342Z 00028KT 01/M02 A2978 RMK A01 T00111015  RH  083%=      5-min Rain = 0
KPD4 182343Z 00026G31KT 01/M02 A2978 RMK A01 T00111015  RH  083%=      5-min Rain = 0
KPD4 182344Z 00023G29KT 01/M01 A2978 RMK A01 T00111014  RH  083%=      5-min Rain = 0
KPD4 182345Z 35021G28KT 01/M01 A2979 RMK A01 T00111014  RH  083%=      5-min Rain = 0
KPD4 182346Z 36025G30KT 01/M01 A2979 RMK A01 T00111014  RH  083%=      5-min Rain = 0
KPD4 182347Z 36026G33KT 01/M01 A2979 RMK A01 T00101014  RH  084%=      5-min Rain = 0
KPD4 182348Z 36024G29KT 01/M02 A2979 RMK A01 T00101015  RH  084%=      5-min Rain = 0
KPD4 182349Z 36026KT 01/M02 A2979 RMK A01 T00101015  RH  084%=      5-min Rain = 0
KPD4 182350Z 35027KT 01/M02 A2979 RMK A01 T00091015  RH  084%=      5-min Rain = 0
KPD4 182351Z 36024G29KT 01/M02 A2979 RMK A01 T00091015  RH  084%=      5-min Rain = 0
KPD4 182352Z 00026KT 01/M02 A298 RMK A01 T00091015  RH  084%=      5-min Rain = 0
KPD4 182353Z 35029G34KT 01/M02 A298 RMK A01 T00081015  RH  084%=      5-min Rain = 0
KPD4 182354Z 35026KT 01/M02 A298 RMK A01 T00081015  RH  085%=      5-min Rain = 0
KPD4 182355Z 35027KT 01/M02 A298 RMK A01 T00081015  RH  085%=      5-min Rain = 0
KPD4 182356Z 36024G29KT 01/M02 A298 RMK A01 T00081015  RH  085%=      5-min Rain = 0
KPD4 182357Z 35027KT 01/M02 A298 RMK A01 T00081015  RH  085%=      5-min Rain = 0
KPD4 182358Z 35024KT 01/M01 A298 RMK A01 T00081014  RH  085%=      5-min Rain = 0
KPD4 182359Z 35026G32KT 01/M01 A2981 RMK A01 T00071014  RH  085%=      5-min Rain = 0
KPD4 190000Z 35022KT 01/M01 A2981 RMK A01 T00071014  RH  086%=      5-min Rain = 0
KPD4 190001Z 35022G29KT 01/M01 A2981 RMK A01 T00071014  RH  086%=      5-min Rain = 0
KPD4 190002Z 35024G30KT 01/M01 A2981 RMK A01 T00071013  RH  086%=      5-min Rain = 0
KPD4 190003Z 36029G34KT 01/M01 A298 RMK A01 T00071014  RH  086%=      5-min Rain = 0
KPD4 190004Z 00027G34KT 01/M02 A298 RMK A01 T00071015  RH  086%=      5-min Rain = 0
KPD4 190005Z 00024G30KT 01/M02 A298 RMK A01 T00061015  RH  086%=      5-min Rain = 0
KPD4 190006Z 36026G31KT 01/M02 A2981 RMK A01 T00061015  RH  086%=      5-min Rain = 0
KPD4 190007Z 00022KT 01/M01 A2981 RMK A01 T00061014  RH  087%=      5-min Rain = 0
KPD4 190008Z 35024KT 01/M01 A2981 RMK A01 T00061014  RH  087%=      5-min Rain = 0
KPD4 190009Z 36027KT 01/M01 A2981 RMK A01 T00051013  RH  087%=      5-min Rain = 0
KPD4 190010Z 36028KT 01/M01 A2981 RMK A01 T00051013  RH  087%=      5-min Rain = 0
KPD4 190011Z 35022KT 01/M01 A2981 RMK A01 T00051014  RH  088%=      5-min Rain = 0
KPD4 190012Z 35023KT 01/M01 A2981 RMK A01 T00051013  RH  088%=      5-min Rain = 0
KPD4 190013Z 35025KT 01/M01 A2981 RMK A01 T00051013  RH  088%=      5-min Rain = 0
KPD4 190014Z 35027G33KT 00/M01 A2981 RMK A01 T00041014  RH  088%=      5-min Rain = 0
KPD4 190015Z 36027KT 00/M01 A2982 RMK A01 T00041014  RH  088%=      5-min Rain = 0
KPD4 190016Z 35023KT 00/M01 A2982 RMK A01 T00041013  RH  088%=      5-min Rain = 0
KPD4 190017Z 35024G30KT 00/M01 A2982 RMK A01 T00041013  RH  088%=      5-min Rain = 0
KPD4 190018Z 35028KT 00/M01 A2982 RMK A01 T00041013  RH  089%=      5-min Rain = 0
KPD4 190019Z 35022G29KT 00/M01 A2982 RMK A01 T00041013  RH  089%=      5-min Rain = 0
KPD4 190020Z 35028G34KT 00/M01 A2982 RMK A01 T00031013  RH  089%=      5-min Rain = 0
KPD4 190021Z 35026KT 00/M01 A2983 RMK A01 T00031014  RH  089%=      5-min Rain = 0
KPD4 190022Z 36025G31KT 00/M01 A2983 RMK A01 T00021014  RH  089%=      5-min Rain = 0
KPD4 190023Z 35027G34KT 00/M01 A2983 RMK A01 T00021014  RH  089%=      5-min Rain = 0
KPD4 190024Z 35028G33KT 00/M01 A2983 RMK A01 T00011014  RH  090%=      5-min Rain = 0
KPD4 190025Z 35027KT 00/M01 A2983 RMK A01 T00011014  RH  090%=      5-min Rain = 0
KPD4 190026Z 35028G34KT 00/M01 A2983 RMK A01 T00011014  RH  090%=      5-min Rain = 0
KPD4 190027Z 35024G32KT 00/M01 A2983 RMK A01 T00011014  RH  090%=      5-min Rain = 0
KPD4 190028Z 35025G32KT 00/M01 A2983 RMK A01 T00011014  RH  090%=      5-min Rain = 0
KPD4 190029Z 35030KT 00/01 A2984 RMK A01 T00000-14  RH  090%=      5-min Rain = 0
KPD4 190030Z 35029KT 00/01 A2984 RMK A01 T00-00-14  RH  091%=      5-min Rain = 0
KPD4 190031Z 35022KT 00/01 A2984 RMK A01 T00-00-14  RH  091%=      5-min Rain = 0
KPD4 190032Z 35026G32KT M00/M01 A2984 RMK A01 T10011013  RH  091%=      5-min Rain = 0
KPD4 190033Z 35027G32KT M00/M01 A2984 RMK A01 T10011013  RH  091%=      5-min Rain = 0
KPD4 190034Z 35023G29KT M00/M01 A2984 RMK A01 T10011013  RH  091%=      5-min Rain = 0
KPD4 190035Z 35021G26KT M00/M01 A2984 RMK A01 T10011012  RH  092%=      5-min Rain = 0
KPD4 190036Z 35022G29KT M00/M01 A2985 RMK A01 T10011012  RH  092%=      5-min Rain = 0
KPD4 190037Z 35026KT M00/M01 A2985 RMK A01 T10011011  RH  093%=      5-min Rain = 0
KPD4 190038Z 35023KT M00/M01 A2985 RMK A01 T10011011  RH  093%=      5-min Rain = 0
KPD4 190039Z 35023G29KT M00/M01 A2985 RMK A01 T10011012  RH  093%=      5-min Rain = 0
KPD4 190040Z 34026KT M00/M01 A2985 RMK A01 T10011012  RH  092%=      5-min Rain = 0
KPD4 190041Z 35026KT M00/M01 A2985 RMK A01 T10011012  RH  092%=      5-min Rain = 0
KPD4 190042Z 35026G31KT M00/M01 A2985 RMK A01 T10011013  RH  092%=      5-min Rain = 0
KPD4 190043Z 35025G30KT M00/M01 A2985 RMK A01 T10011013  RH  092%=      5-min Rain = 0
KPD4 190044Z 35027G32KT M00/M01 A2986 RMK A01 T10011013  RH  092%=      5-min Rain = 0
KPD4 190045Z 35025G31KT M00/M01 A2986 RMK A01 T10011014  RH  091%=      5-min Rain = 0
KPD4 190046Z 35030G35KT M00/M01 A2986 RMK A01 T10011014  RH  091%=      5-min Rain = 0
KPD4 190047Z 35029G35KT M00/M01 A2986 RMK A01 T10011014  RH  091%=      5-min Rain = 0
KPD4 190048Z 35028G33KT M00/M01 A2986 RMK A01 T10011014  RH  091%=      5-min Rain = 0
KPD4 190049Z 35027G34KT M00/M01 A2986 RMK A01 T10011014  RH  091%=      5-min Rain = 0
KPD4 190050Z 34028G33KT M00/M01 A2986 RMK A01 T10011014  RH  091%=      5-min Rain = 0
KPD4 190051Z 35028G33KT M00/M02 A2986 RMK A01 T10011015  RH  091%=      5-min Rain = 0
KPD4 190052Z 35026G32KT M00/M02 A2987 RMK A01 T10011015  RH  091%=      5-min Rain = 0
KPD4 190053Z 35026G32KT M00/M02 A2987 RMK A01 T10021015  RH  091%=      5-min Rain = 0
KPD4 190054Z 35024G30KT M00/M02 A2987 RMK A01 T10021015  RH  091%=      5-min Rain = 0
KPD4 190055Z 35022G27KT M00/M02 A2987 RMK A01 T10021015  RH  091%=      5-min Rain = 0
KPD4 190056Z 35024G30KT M00/M01 A2987 RMK A01 T10021014  RH  091%=      5-min Rain = 0
KPD4 190057Z 35024G29KT M00/M01 A2987 RMK A01 T10021014  RH  092%=      5-min Rain = 0
KPD4 190058Z 35022G27KT M00/M01 A2987 RMK A01 T10021014  RH  092%=      5-min Rain = 0
KPD4 190059Z 35024G30KT M00/M01 A2988 RMK A01 T10021013  RH  092%=      5-min Rain = 0
KPD4 190100Z 35025KT M00/M01 A2988 RMK A01 T10021013  RH  092%=      5-min Rain = 0
KPD4 190101Z 35023G30KT M00/M01 A2988 RMK A01 T10021013  RH  092%=      5-min Rain = 0
KPD4 190102Z 35028G33KT M00/M01 A2988 RMK A01 T10021013  RH  092%=      5-min Rain = 0
KPD4 190103Z 35026G31KT M00/M01 A2988 RMK A01 T10021014  RH  092%=      5-min Rain = 0
KPD4 190104Z 35028KT M00/M01 A2988 RMK A01 T10021014  RH  092%=      5-min Rain = 0
KPD4 190105Z 34024KT M00/M02 A2988 RMK A01 T10021015  RH  091%=      5-min Rain = 0
KPD4 190106Z 34025G30KT M00/M01 A2988 RMK A01 T10021014  RH  092%=      5-min Rain = 0
KPD4 190107Z 35028KT M00/M01 A2988 RMK A01 T10021014  RH  092%=      5-min Rain = 0
KPD4 190108Z 35025G31KT M00/M01 A2988 RMK A01 T10021014  RH  092%=      5-min Rain = 0
KPD4 190109Z 35026KT M00/M02 A2988 RMK A01 T10021015  RH  091%=      5-min Rain = 0
KPD4 190110Z 35029KT M00/M02 A2988 RMK A01 T10021015  RH  091%=      5-min Rain = 0
KPD4 190111Z 35030G35KT M00/M02 A2988 RMK A01 T10021015  RH  091%=      5-min Rain = 0
KPD4 190112Z 35027G34KT M00/M02 A2988 RMK A01 T10021016  RH  090%=      5-min Rain = 0
KPD4 190113Z 35028KT M00/M02 A2988 RMK A01 T10021016  RH  090%=      5-min Rain = 0
KPD4 190114Z 35028G33KT M00/M02 A2988 RMK A01 T10031016  RH  091%=      5-min Rain = 0
KPD4 190115Z 35022KT M00/M02 A2989 RMK A01 T10031016  RH  091%=      5-min Rain = 0
KPD4 190116Z 35023G28KT M00/M02 A2989 RMK A01 T10031015  RH  092%=      5-min Rain = 0
KPD4 190117Z 35025KT M00/M02 A2989 RMK A01 T10031015  RH  092%=      5-min Rain = 0
KPD4 190118Z 35028G34KT M00/M02 A2989 RMK A01 T10031015  RH  092%=      5-min Rain = 0
KPD4 190119Z 35027KT M00/M02 A2989 RMK A01 T10031016  RH  091%=      5-min Rain = 0
KPD4 190120Z 35024G30KT M00/M02 A2989 RMK A01 T10031016  RH  091%=      5-min Rain = 0
KPD4 190121Z 35027KT M00/M02 A2989 RMK A01 T10031016  RH  091%=      5-min Rain = 0
KPD4 190122Z 35031G36KT M00/M02 A2989 RMK A01 T10031016  RH  091%=      5-min Rain = 0
KPD4 190123Z 35030KT M00/M02 A2989 RMK A01 T10031016  RH  091%=      5-min Rain = 0
KPD4 190124Z 36031G37KT M00/M02 A2989 RMK A01 T10031017  RH  091%=      5-min Rain = 0
KPD4 190125Z 35024G29KT M00/M02 A2989 RMK A01 T10031016  RH  091%=      5-min Rain = 0
KPD4 190126Z 35023G29KT M00/M02 A299 RMK A01 T10031016  RH  091%=      5-min Rain = 0
KPD4 190127Z 35024G32KT M00/M02 A299 RMK A01 T10031016  RH  091%=      5-min Rain = 0
KPD4 190128Z 35026G31KT M00/M02 A299 RMK A01 T10041016  RH  092%=      5-min Rain = 0
KPD4 190129Z 35024G29KT M00/M02 A299 RMK A01 T10041015  RH  092%=      5-min Rain = 0
KPD4 190130Z 35023KT M00/M02 A299 RMK A01 T10041015  RH  092%=      5-min Rain = 0
KPD4 190131Z 35025G30KT M00/M02 A299 RMK A01 T10041015  RH  093%=      5-min Rain = 0
KPD4 190132Z 35022G27KT M00/M01 A299 RMK A01 T10041014  RH  093%=      5-min Rain = 0
KPD4 190133Z 35028G35KT M00/M01 A299 RMK A01 T10041014  RH  093%=      5-min Rain = 0
KPD4 190134Z 35027G33KT M01/M02 A299 RMK A01 T10051015  RH  093%=      5-min Rain = 0
KPD4 190135Z 35026KT M01/M02 A299 RMK A01 T10051015  RH  093%=      5-min Rain = 0
KPD4 190136Z 35023KT M01/M02 A299 RMK A01 T10051015  RH  093%=      5-min Rain = 0
KPD4 190137Z 35026G31KT M01/M02 A2991 RMK A01 T10051015  RH  093%=      5-min Rain = 0
KPD4 190138Z 35029G35KT M01/M02 A299 RMK A01 T10051015  RH  093%=      5-min Rain = 0
KPD4 190139Z 35028G33KT M01/M02 A2991 RMK A01 T10051015  RH  093%=      5-min Rain = 0
KPD4 190140Z 35027G32KT M01/M02 A2991 RMK A01 T10061015  RH  093%=      5-min Rain = 0
KPD4 190141Z 35028G35KT M01/M02 A2991 RMK A01 T10061015  RH  093%=      5-min Rain = 0
KPD4 190142Z 35026G31KT M01/M02 A2991 RMK A01 T10061015  RH  093%=      5-min Rain = 0
KPD4 190143Z 35030KT M01/M02 A2991 RMK A01 T10061015  RH  094%=      5-min Rain = 0
KPD4 190144Z 35029KT M01/M02 A2991 RMK A01 T10061016  RH  093%=      5-min Rain = 0
KPD4 190145Z 35029G34KT M01/M02 A2991 RMK A01 T10061016  RH  093%=      5-min Rain = 0
KPD4 190146Z 35027G35KT M01/M02 A2991 RMK A01 T10061015  RH  093%=      5-min Rain = 0
KPD4 190147Z 35028G33KT M01/M02 A2991 RMK A01 T10061016  RH  093%=      5-min Rain = 0
KPD4 190148Z 35029G34KT M01/M02 A2991 RMK A01 T10061016  RH  093%=      5-min Rain = 0
KPD4 190149Z 35030G36KT M01/M02 A2992 RMK A01 T10061017  RH  092%=      5-min Rain = 0
KPD4 190150Z 36031KT M01/M02 A2991 RMK A01 T10051018  RH  091%=      5-min Rain = 0
KPD4 190151Z 35027G32KT M01/M02 A2992 RMK A01 T10051018  RH  091%=      5-min Rain = 0
KPD4 190152Z 35030KT M01/M02 A2992 RMK A01 T10051019  RH  091%=      5-min Rain = 0
KPD4 190153Z 35029G34KT M01/M02 A2992 RMK A01 T10051019  RH  090%=      5-min Rain = 0
KPD4 190154Z 36026G33KT M01/M02 A2992 RMK A01 T10051020  RH  090%=      5-min Rain = 0
KPD4 190155Z 35028G33KT M01/M02 A2992 RMK A01 T10051020  RH  090%=      5-min Rain = 0
KPD4 190156Z 35025KT M01/M02 A2993 RMK A01 T10051020  RH  090%=      5-min Rain = 0
KPD4 190157Z 35024KT M01/M02 A2993 RMK A01 T10051020  RH  090%=      5-min Rain = 0
KPD4 190158Z 35025KT M01/M02 A2993 RMK A01 T10051020  RH  090%=      5-min Rain = 0
KPD4 190159Z 35024G30KT M01/M02 A2993 RMK A01 T10051020  RH  090%=      5-min Rain = 0
KPD4 190200Z 36027G33KT M01/M02 A2993 RMK A01 T10051020  RH  090%=      5-min Rain = 0
KPD4 190201Z 35029KT M01/M02 A2993 RMK A01 T10051020  RH  089%=      5-min Rain = 0
KPD4 190202Z 35023G28KT M01/M02 A2993 RMK A01 T10051020  RH  089%=      5-min Rain = 0
KPD4 190203Z 35025G34KT M01/M02 A2994 RMK A01 T10051019  RH  090%=      5-min Rain = 0
KPD4 190204Z 35023G28KT M01/M02 A2994 RMK A01 T10051019  RH  090%=      5-min Rain = 0
KPD4 190205Z 35028G33KT M01/M02 A2993 RMK A01 T10051019  RH  090%=      5-min Rain = 0
KPD4 190206Z 36026G32KT M01/M02 A2993 RMK A01 T10051019  RH  090%=      5-min Rain = 0
KPD4 190207Z 35024G30KT M01/M02 A2994 RMK A01 T10051019  RH  090%=      5-min Rain = 0
KPD4 190208Z 35023G29KT M01/M02 A2994 RMK A01 T10051019  RH  091%=      5-min Rain = 0
KPD4 190209Z 36025KT M01/M02 A2994 RMK A01 T10051019  RH  091%=      5-min Rain = 0
KPD4 190210Z 35023G29KT M01/M02 A2994 RMK A01 T10051018  RH  091%=      5-min Rain = 0
KPD4 190211Z 35025G31KT M01/M02 A2994 RMK A01 T10061018  RH  091%=      5-min Rain = 0
KPD4 190212Z 00026G32KT M01/M02 A2994 RMK A01 T10061018  RH  091%=      5-min Rain = 0
KPD4 190213Z 00025KT M01/M02 A2994 RMK A01 T10061018  RH  091%=      5-min Rain = 0
KPD4 190214Z 36023G29KT M01/M02 A2994 RMK A01 T10061018  RH  092%=      5-min Rain = 0
KPD4 190215Z 00022G27KT M01/M02 A2994 RMK A01 T10061018  RH  092%=      5-min Rain = 0
KPD4 190216Z 36017KT M01/M02 A2995 RMK A01 T10061017  RH  092%=      5-min Rain = 0
KPD4 190217Z 36019G28KT M01/M02 A2995 RMK A01 T10061017  RH  093%=      5-min Rain = 0
KPD4 190218Z 35020G26KT M01/M02 A2995 RMK A01 T10071017  RH  093%=      5-min Rain = 0
KPD4 190219Z 00019G24KT M01/M02 A2995 RMK A01 T10071017  RH  093%=      5-min Rain = 0
KPD4 190220Z 00023KT M01/M02 A2995 RMK A01 T10071016  RH  093%=      5-min Rain = 0
KPD4 190221Z 00022G28KT M01/M02 A2995 RMK A01 T10071017  RH  093%=      5-min Rain = 0
KPD4 190222Z 00027G34KT M01/M02 A2995 RMK A01 T10071018  RH  092%=      5-min Rain = 0
KPD4 190223Z 00025G31KT M01/M02 A2995 RMK A01 T10081019  RH  092%=      5-min Rain = 0
KPD4 190224Z 36034G41KT M01/M02 A2994 RMK A01 T10071020  RH  092%=      5-min Rain = 0
KPD4 190225Z 35028G33KT M01/M02 A2995 RMK A01 T10081021  RH  091%=      5-min Rain = 0
KPD4 190226Z 36027G32KT M01/M02 A2995 RMK A01 T10081021  RH  091%=      5-min Rain = 0
KPD4 190227Z 35031G37KT M01/M02 A2995 RMK A01 T10081022  RH  091%=      5-min Rain = 0
KPD4 190228Z 36031KT M01/M02 A2995 RMK A01 T10091022  RH  090%=      5-min Rain = 0
KPD4 190229Z 36028G36KT M01/M02 A2995 RMK A01 T10091022  RH  091%=      5-min Rain = 0
KPD4 190230Z 35027KT M01/M02 A2995 RMK A01 T10091022  RH  091%=      5-min Rain = 0
KPD4 190231Z 36031G38KT M01/M02 A2995 RMK A01 T10091022  RH  092%=      5-min Rain = 0
KPD4 190232Z 36027G33KT M01/M02 A2995 RMK A01 T10091021  RH  092%=      5-min Rain = 0
KPD4 190233Z 36034G40KT M01/M02 A2995 RMK A01 T10091021  RH  092%=      5-min Rain = 0
KPD4 190234Z 35039KT M01/M02 A2995 RMK A01 T10101023  RH  091%=      5-min Rain = 0
KPD4 190235Z 35034G41KT M01/M02 A2995 RMK A01 T10101024  RH  090%=      5-min Rain = 0
KPD4 190236Z 35033G38KT M01/M02 A2995 RMK A01 T10101024  RH  090%=      5-min Rain = 0
KPD4 190237Z 35030G37KT M01/M02 A2995 RMK A01 T10101024  RH  091%=      5-min Rain = 0
KPD4 190238Z 35026G33KT M01/M02 A2996 RMK A01 T10111024  RH  091%=      5-min Rain = 0
KPD4 190239Z 36029KT M01/M02 A2995 RMK A01 T10111023  RH  092%=      5-min Rain = 0
KPD4 190240Z 36030G38KT M01/M02 A2996 RMK A01 T10121023  RH  092%=      5-min Rain = 0
KPD4 190241Z 36030G36KT M01/M02 A2996 RMK A01 T10121023  RH  092%=      5-min Rain = 0
KPD4 190242Z 36032G39KT M01/M02 A2995 RMK A01 T10121023  RH  092%=      5-min Rain = 0
KPD4 190243Z 36028G39KT M01/M02 A2996 RMK A01 T10121023  RH  092%=      5-min Rain = 0
KPD4 190244Z 35029KT M01/M02 A2996 RMK A01 T10121022  RH  092%=      5-min Rain = 0
KPD4 190245Z 35030KT M01/M02 A2996 RMK A01 T10121023  RH  093%=      5-min Rain = 0
KPD4 190246Z 36033KT M01/M02 A2996 RMK A01 T10121023  RH  093%=      5-min Rain = 0
KPD4 190247Z 35032KT M01/M02 A2996 RMK A01 T10121023  RH  093%=      5-min Rain = 0
KPD4 190248Z 36033KT M01/M02 A2996 RMK A01 T10121023  RH  093%=      5-min Rain = 0
KPD4 190249Z 36028KT M01/M02 A2996 RMK A01 T10121023  RH  092%=      5-min Rain = 0
KPD4 190250Z 36027G32KT M01/M02 A2997 RMK A01 T10121023  RH  092%=      5-min Rain = 0
KPD4 190251Z 35026G31KT M01/M02 A2997 RMK A01 T10121023  RH  093%=      5-min Rain = 0
KPD4 190252Z 35030KT M01/M02 A2997 RMK A01 T10121023  RH  093%=      5-min Rain = 0
KPD4 190253Z 36032G38KT M01/M02 A2997 RMK A01 T10121023  RH  092%=      5-min Rain = 0
KPD4 190254Z 00032G37KT M01/M02 A2997 RMK A01 T10121024  RH  092%=      5-min Rain = 0
KPD4 190255Z 36031KT M01/M02 A2997 RMK A01 T10121024  RH  091%=      5-min Rain = 0
KPD4 190256Z 36025G32KT M01/M02 A2997 RMK A01 T10121024  RH  091%=      5-min Rain = 0
KPD4 190257Z 36026G32KT M01/M02 A2997 RMK A01 T10121023  RH  092%=      5-min Rain = 0
KPD4 190258Z 35028G33KT M01/M02 A2997 RMK A01 T10121023  RH  092%=      5-min Rain = 0
KPD4 190259Z 35029G34KT M01/M02 A2997 RMK A01 T10121023  RH  092%=      5-min Rain = 0
KPD4 190300Z 36028G35KT M01/M02 A2997 RMK A01 T10121023  RH  092%=      5-min Rain = 0
KPD4 190301Z 36026KT M01/M02 A2998 RMK A01 T10121023  RH  092%=      5-min Rain = 0
KPD4 190302Z 35029KT M01/M02 A2998 RMK A01 T10121023  RH  092%=      5-min Rain = 0
KPD4 190303Z 35026KT M01/M02 A2998 RMK A01 T10121023  RH  092%=      5-min Rain = 0
KPD4 190304Z 35027G33KT M01/M02 A2998 RMK A01 T10121023  RH  092%=      5-min Rain = 0
KPD4 190305Z 00028G34KT M01/M02 A2998 RMK A01 T10121023  RH  092%=      5-min Rain = 0
KPD4 190306Z 35027G33KT M01/M02 A2998 RMK A01 T10121023  RH  092%=      5-min Rain = 0
KPD4 190307Z 36029G35KT M01/M02 A2998 RMK A01 T10121023  RH  092%=      5-min Rain = 0
KPD4 190308Z 36028KT M01/M02 A2998 RMK A01 T10111023  RH  092%=      5-min Rain = 0
KPD4 190309Z 36026G33KT M01/M02 A2998 RMK A01 T10111022  RH  092%=      5-min Rain = 0
KPD4 190310Z 00027G38KT M01/M02 A2998 RMK A01 T10111023  RH  092%=      5-min Rain = 0
KPD4 190311Z 00029KT M01/M02 A2998 RMK A01 T10111023  RH  092%=      5-min Rain = 0
KPD4 190312Z 35025G30KT M01/M02 A2998 RMK A01 T10111023  RH  092%=      5-min Rain = 0
KPD4 190313Z 36028KT M01/M02 A2998 RMK A01 T10111022  RH  092%=      5-min Rain = 0
KPD4 190314Z 36023KT M01/M02 A2998 RMK A01 T10111022  RH  092%=      5-min Rain = 0
KPD4 190315Z 36023G30KT M01/M02 A2999 RMK A01 T10111022  RH  092%=      5-min Rain = 0
KPD4 190316Z 36026G32KT M01/M02 A2998 RMK A01 T10111022  RH  092%=      5-min Rain = 0
KPD4 190317Z 36024G29KT M01/M02 A2999 RMK A01 T10111022  RH  092%=      5-min Rain = 0
KPD4 190318Z 36027KT M01/M02 A2999 RMK A01 T10111022  RH  092%=      5-min Rain = 0
KPD4 190319Z 35030G36KT M01/M02 A2998 RMK A01 T10111023  RH  092%=      5-min Rain = 0
KPD4 190320Z 36026G33KT M01/M02 A2999 RMK A01 T10111023  RH  092%=      5-min Rain = 0
KPD4 190321Z 36023G32KT M01/M02 A2999 RMK A01 T10111022  RH  092%=      5-min Rain = 0
KPD4 190322Z 35029KT M01/M02 A2998 RMK A01 T10111022  RH  092%=      5-min Rain = 0
KPD4 190323Z 36024G30KT M01/M02 A2999 RMK A01 T10111023  RH  092%=      5-min Rain = 0
KPD4 190324Z 00025G30KT M01/M02 A2999 RMK A01 T10111023  RH  092%=      5-min Rain = 0
KPD4 190325Z 00023KT M01/M02 A2999 RMK A01 T10111022  RH  092%=      5-min Rain = 0
KPD4 190326Z 00023G29KT M01/M02 A2999 RMK A01 T10111022  RH  092%=      5-min Rain = 0
KPD4 190327Z 00027G33KT M01/M02 A2999 RMK A01 T10111022  RH  092%=      5-min Rain = 0
KPD4 190328Z 00028G34KT M01/M02 A2999 RMK A01 T10111022  RH  092%=      5-min Rain = 0
KPD4 190329Z 36025G32KT M01/M02 A2999 RMK A01 T10111022  RH  092%=      5-min Rain = 0
KPD4 190330Z 00027KT M01/M02 A2999 RMK A01 T10111023  RH  092%=      5-min Rain = 0
KPD4 190331Z 36027KT M01/M02 A30 RMK A01 T10111022  RH  092%=      5-min Rain = 0
KPD4 190332Z 35022G28KT M01/M02 A30 RMK A01 T10111022  RH  092%=      5-min Rain = 0
KPD4 190333Z 00022KT M01/M02 A30 RMK A01 T10111022  RH  092%=      5-min Rain = 0
KPD4 190334Z 00020KT M01/M02 A30 RMK A01 T10111022  RH  093%=      5-min Rain = 0
KPD4 190335Z 36022KT M01/M02 A30 RMK A01 T10111022  RH  093%=      5-min Rain = 0
KPD4 190336Z 36023G28KT M01/M02 A30 RMK A01 T10111021  RH  093%=      5-min Rain = 0
KPD4 190337Z 00020G26KT M01/M02 A30 RMK A01 T10111022  RH  093%=      5-min Rain = 0
KPD4 190338Z 36020KT M01/M02 A30 RMK A01 T10111022  RH  093%=      5-min Rain = 0
KPD4 190339Z 00021KT M01/M02 A30 RMK A01 T10111021  RH  093%=      5-min Rain = 0
KPD4 190340Z 00025KT M01/M02 A30 RMK A01 T10111021  RH  093%=      5-min Rain = 0
KPD4 190341Z 00022G28KT M01/M02 A30 RMK A01 T10111021  RH  093%=      5-min Rain = 0
KPD4 190342Z 36021G28KT M01/M02 A30 RMK A01 T10111021  RH  093%=      5-min Rain = 0
KPD4 190343Z 36026KT M01/M02 A30 RMK A01 T10111021  RH  093%=      5-min Rain = 0
KPD4 190344Z 01020KT M01/M02 A30 RMK A01 T10111022  RH  093%=      5-min Rain = 0
KPD4 190345Z 00022G28KT M01/M02 A30 RMK A01 T10111022  RH  092%=      5-min Rain = 0
KPD4 190346Z 36021G26KT M01/M02 A3001 RMK A01 T10111022  RH  093%=      5-min Rain = 0
KPD4 190347Z 36024G29KT M01/M02 A3001 RMK A01 T10111022  RH  093%=      5-min Rain = 0
KPD4 190348Z 36023KT M01/M02 A30 RMK A01 T10111022  RH  092%=      5-min Rain = 0
KPD4 190349Z 35025G30KT M01/M02 A3001 RMK A01 T10111023  RH  092%=      5-min Rain = 0
KPD4 190350Z 36022KT M01/M02 A3001 RMK A01 T10111023  RH  092%=      5-min Rain = 0
KPD4 190351Z 00024KT M01/M02 A3001 RMK A01 T10111022  RH  092%=      5-min Rain = 0
KPD4 190352Z 00023KT M01/M02 A3001 RMK A01 T10111022  RH  092%=      5-min Rain = 0
KPD4 190353Z 36020KT M01/M02 A3001 RMK A01 T10111022  RH  092%=      5-min Rain = 0
KPD4 190354Z 00018G24KT M01/M02 A3001 RMK A01 T10111022  RH  092%=      5-min Rain = 0
KPD4 190355Z 36022G27KT M01/M02 A3001 RMK A01 T10111022  RH  093%=      5-min Rain = 0
KPD4 190356Z 36020G26KT M01/M02 A3001 RMK A01 T10111022  RH  093%=      5-min Rain = 0
KPD4 190357Z 00024G29KT M01/M02 A3001 RMK A01 T10111022  RH  093%=      5-min Rain = 0
KPD4 190358Z 36023G29KT M01/M02 A3001 RMK A01 T10111022  RH  092%=      5-min Rain = 0
KPD4 190359Z 36018G23KT M01/M02 A3001 RMK A01 T10111022  RH  092%=      5-min Rain = 0
KPD4 190400Z 00018G23KT M01/M02 A3001 RMK A01 T10111022  RH  092%=      5-min Rain = 0
KPD4 190401Z 36021G26KT M01/M02 A3002 RMK A01 T10111022  RH  093%=      5-min Rain = 0
KPD4 190402Z 00021KT M01/M02 A3001 RMK A01 T10111022  RH  093%=      5-min Rain = 0
KPD4 190403Z 36021G27KT M01/M02 A3002 RMK A01 T10111022  RH  093%=      5-min Rain = 0
KPD4 190404Z 00023G28KT M01/M02 A3001 RMK A01 T10111021  RH  092%=      5-min Rain = 0
KPD4 190405Z 36020G25KT M01/M02 A3002 RMK A01 T10111022  RH  092%=      5-min Rain = 0
KPD4 190406Z 00022KT M01/M02 A3002 RMK A01 T10111022  RH  092%=      5-min Rain = 0
KPD4 190407Z 36022KT M01/M02 A3002 RMK A01 T10111022  RH  092%=      5-min Rain = 0
KPD4 190408Z 36019KT M01/M02 A3002 RMK A01 T10101022  RH  092%=      5-min Rain = 0
KPD4 190409Z 36021KT M01/M02 A3002 RMK A01 T10101021  RH  092%=      5-min Rain = 0
KPD4 190410Z 36023KT M01/M02 A3002 RMK A01 T10101021  RH  092%=      5-min Rain = 0
KPD4 190411Z 36021KT M01/M02 A3002 RMK A01 T10101022  RH  092%=      5-min Rain = 0
KPD4 190412Z 36021KT M01/M02 A3002 RMK A01 T10101022  RH  092%=      5-min Rain = 0
KPD4 190413Z 35019G24KT M01/M02 A3002 RMK A01 T10101022  RH  092%=      5-min Rain = 0
KPD4 190414Z 36021KT M01/M02 A3002 RMK A01 T10091021  RH  092%=      5-min Rain = 0
KPD4 190415Z 36020KT M01/M02 A3002 RMK A01 T10091022  RH  092%=      5-min Rain = 0
KPD4 190416Z 36023KT M01/M02 A3002 RMK A01 T10091021  RH  091%=      5-min Rain = 0
KPD4 190417Z 00021KT M01/M02 A3002 RMK A01 T10091022  RH  091%=      5-min Rain = 0
KPD4 190418Z 00020KT M01/M02 A3002 RMK A01 T10091022  RH  091%=      5-min Rain = 0
KPD4 190419Z 00022KT M01/M02 A3002 RMK A01 T10091022  RH  091%=      5-min Rain = 0
KPD4 190420Z 36022KT M01/M02 A3002 RMK A01 T10091022  RH  091%=      5-min Rain = 0
KPD4 190421Z 00023G28KT M01/M02 A3002 RMK A01 T10081022  RH  090%=      5-min Rain = 0
KPD4 190422Z 00020G26KT M01/M02 A3002 RMK A01 T10081022  RH  090%=      5-min Rain = 0
KPD4 190423Z 00025KT M01/M02 A3002 RMK A01 T10081023  RH  090%=      5-min Rain = 0
KPD4 190424Z 36022G28KT M01/M02 A3002 RMK A01 T10081023  RH  090%=      5-min Rain = 0
KPD4 190425Z 00024G30KT M01/M02 A3002 RMK A01 T10081023  RH  090%=      5-min Rain = 0
KPD4 190426Z 00022G27KT M01/M02 A3002 RMK A01 T10081023  RH  090%=      5-min Rain = 0
KPD4 190427Z 00024KT M01/M02 A3002 RMK A01 T10081023  RH  090%=      5-min Rain = 0
KPD4 190428Z 00022KT M01/M02 A3002 RMK A01 T10081023  RH  090%=      5-min Rain = 0
KPD4 190429Z 00022G28KT M01/M02 A3002 RMK A01 T10081023  RH  090%=      5-min Rain = 0
KPD4 190430Z 01023G29KT M01/M02 A3002 RMK A01 T10081023  RH  090%=      5-min Rain = 0
KPD4 190431Z 00022G28KT M01/M02 A3002 RMK A01 T10081023  RH  090%=      5-min Rain = 0
KPD4 190432Z 36021G28KT M01/M02 A3002 RMK A01 T10081023  RH  090%=      5-min Rain = 0
KPD4 190433Z 00022KT M01/M02 A3002 RMK A01 T10091022  RH  090%=      5-min Rain = 0
KPD4 190434Z 01026G32KT M01/M02 A3002 RMK A01 T10091022  RH  091%=      5-min Rain = 0
KPD4 190435Z 00023KT M01/M02 A3002 RMK A01 T10091022  RH  091%=      5-min Rain = 0
KPD4 190436Z 00020G26KT M01/M02 A3003 RMK A01 T10091022  RH  091%=      5-min Rain = 0
KPD4 190437Z 36023KT M01/M02 A3002 RMK A01 T10091022  RH  091%=      5-min Rain = 0
KPD4 190438Z 00022KT M01/M02 A3003 RMK A01 T10091021  RH  092%=      5-min Rain = 0
KPD4 190439Z 00022G27KT M01/M02 A3003 RMK A01 T10101021  RH  092%=      5-min Rain = 0
KPD4 190440Z 00018KT M01/M02 A3003 RMK A01 T10101021  RH  092%=      5-min Rain = 0
KPD4 190441Z 00022G27KT M01/M02 A3003 RMK A01 T10101020  RH  093%=      5-min Rain = 0
KPD4 190442Z 00021KT M01/M02 A3003 RMK A01 T10101021  RH  093%=      5-min Rain = 0
KPD4 190443Z 01024G30KT M01/M02 A3003 RMK A01 T10101021  RH  093%=      5-min Rain = 0
KPD4 190444Z 36024G31KT M01/M02 A3003 RMK A01 T10111021  RH  093%=      5-min Rain = 0
KPD4 190445Z 00020G28KT M01/M02 A3003 RMK A01 T10101021  RH  093%=      5-min Rain = 0
KPD4 190446Z 00023KT M01/M02 A3003 RMK A01 T10101020  RH  093%=      5-min Rain = 0
KPD4 190447Z 00021G26KT M01/M02 A3003 RMK A01 T10111020  RH  093%=      5-min Rain = 0
KPD4 190448Z 00022KT M01/M02 A3003 RMK A01 T10111020  RH  094%=      5-min Rain = 0
KPD4 190449Z 36019G24KT M01/M02 A3003 RMK A01 T10111019  RH  094%=      5-min Rain = 0
KPD4 190450Z 36022KT M01/M02 A3003 RMK A01 T10111019  RH  094%=      5-min Rain = 0
KPD4 190451Z 00019G24KT M01/M02 A3003 RMK A01 T10111019  RH  094%=      5-min Rain = 0
KPD4 190452Z 00020KT M01/M02 A3003 RMK A01 T10111019  RH  094%=      5-min Rain = 0
KPD4 190453Z 00019G24KT M01/M02 A3003 RMK A01 T10111019  RH  095%=      5-min Rain = 0
KPD4 190454Z 01017KT M01/M02 A3004 RMK A01 T10111019  RH  095%=      5-min Rain = 0
KPD4 190455Z 00017KT M01/M02 A3003 RMK A01 T10111018  RH  095%=      5-min Rain = 0
KPD4 190456Z 00016KT M01/M02 A3004 RMK A01 T10111018  RH  095%=      5-min Rain = 0
KPD4 190457Z 00018KT M01/M02 A3003 RMK A01 T10111018  RH  095%=      5-min Rain = 0
KPD4 190458Z 00016KT M01/M02 A3004 RMK A01 T10111018  RH  095%=      5-min Rain = 0
KPD4 190459Z 00020KT M01/M02 A3004 RMK A01 T10111018  RH  095%=      5-min Rain = 0
KPD4 190500Z 00018KT M01/M02 A3004 RMK A01 T10111018  RH  095%=      5-min Rain = 0
KPD4 190501Z 00018KT M01/M02 A3004 RMK A01 T10111018  RH  095%=      5-min Rain = 0
KPD4 190502Z 00017G23KT M01/M02 A3004 RMK A01 T10111018  RH  095%=      5-min Rain = 0
KPD4 190503Z 00016G21KT M01/M02 A3004 RMK A01 T10111018  RH  095%=      5-min Rain = 0
KPD4 190504Z 01017KT M01/M02 A3004 RMK A01 T10111017  RH  095%=      5-min Rain = 0
KPD4 190505Z 00019KT M01/M02 A3004 RMK A01 T10111017  RH  096%=      5-min Rain = 0
KPD4 190506Z 00017KT M01/M02 A3004 RMK A01 T10111017  RH  095%=      5-min Rain = 0
KPD4 190507Z 36015KT M01/M02 A3004 RMK A01 T10101017  RH  095%=      5-min Rain = 0
KPD4 190508Z 01017G22KT M01/M02 A3004 RMK A01 T10101017  RH  095%=      5-min Rain = 0
KPD4 190509Z 00016KT M01/M02 A3004 RMK A01 T10101017  RH  095%=      5-min Rain = 0
KPD4 190510Z 00016KT M01/M02 A3004 RMK A01 T10101017  RH  095%=      5-min Rain = 0
KPD4 190511Z 00014G19KT M01/M02 A3004 RMK A01 T10101017  RH  095%=      5-min Rain = 0
KPD4 190512Z 00016KT M01/M02 A3004 RMK A01 T10101017  RH  095%=      5-min Rain = 0
KPD4 190513Z 36016KT M01/M02 A3004 RMK A01 T10101017  RH  095%=      5-min Rain = 0
KPD4 190514Z 36018KT M01/M02 A3004 RMK A01 T10101017  RH  095%=      5-min Rain = 0
KPD4 190515Z 36019KT M01/M02 A3004 RMK A01 T10101017  RH  095%=      5-min Rain = 0
KPD4 190516Z 01016KT M01/M02 A3004 RMK A01 T10101017  RH  095%=      5-min Rain = 0
KPD4 190517Z 35017G22KT M01/M02 A3004 RMK A01 T10101017  RH  095%=      5-min Rain = 0
KPD4 190518Z 36018KT M01/M02 A3004 RMK A01 T10091017  RH  095%=      5-min Rain = 0
KPD4 190519Z 36018KT M01/M02 A3005 RMK A01 T10091017  RH  094%=      5-min Rain = 0
KPD4 190520Z 35020KT M01/M02 A3005 RMK A01 T10091017  RH  095%=      5-min Rain = 0
KPD4 190521Z 36022KT M01/M02 A3004 RMK A01 T10091017  RH  094%=      5-min Rain = 0
KPD4 190522Z 35020KT M01/M02 A3004 RMK A01 T10091017  RH  094%=      5-min Rain = 0
KPD4 190523Z 35020KT M01/M02 A3005 RMK A01 T10081017  RH  094%=      5-min Rain = 0
KPD4 190524Z 35022G28KT M01/M02 A3005 RMK A01 T10081017  RH  094%=      5-min Rain = 0
KPD4 190525Z 35023KT M01/M02 A3004 RMK A01 T10081018  RH  093%=      5-min Rain = 0
KPD4 190526Z 35021G29KT M01/M02 A3005 RMK A01 T10091020  RH  092%=      5-min Rain = 0
KPD4 190527Z 35024G29KT M01/M02 A3005 RMK A01 T10081022  RH  091%=      5-min Rain = 0
KPD4 190528Z 36022KT M01/M02 A3005 RMK A01 T10091024  RH  090%=      5-min Rain = 0
KPD4 190529Z 35021G26KT M01/M03 A3005 RMK A01 T10091025  RH  089%=      5-min Rain = 0
KPD4 190530Z 36022KT M01/M03 A3005 RMK A01 T10091026  RH  088%=      5-min Rain = 0
KPD4 190531Z 35022G27KT M01/M03 A3005 RMK A01 T10101027  RH  088%=      5-min Rain = 0
KPD4 190532Z 36024G29KT M01/M03 A3005 RMK A01 T10101029  RH  087%=      5-min Rain = 0
KPD4 190533Z 35023KT M01/M03 A3005 RMK A01 T10101030  RH  087%=      5-min Rain = 0
KPD4 190534Z 35023G28KT M01/M03 A3005 RMK A01 T10101030  RH  086%=      5-min Rain = 0
KPD4 190535Z 35025G30KT M01/M03 A3005 RMK A01 T10111031  RH  086%=      5-min Rain = 0
KPD4 190536Z 35026G31KT M01/M03 A3005 RMK A01 T10111033  RH  086%=      5-min Rain = 0
KPD4 190537Z 35024KT M01/M03 A3005 RMK A01 T10111033  RH  085%=      5-min Rain = 0
KPD4 190538Z 35027G32KT M01/M03 A3005 RMK A01 T10121034  RH  085%=      5-min Rain = 0
KPD4 190539Z 35026KT M01/M04 A3005 RMK A01 T10121036  RH  084%=      5-min Rain = 0
KPD4 190540Z 35026KT M01/M04 A3005 RMK A01 T10121037  RH  084%=      5-min Rain = 0
KPD4 190541Z 35026G32KT M01/M04 A3005 RMK A01 T10131037  RH  084%=      5-min Rain = 0
KPD4 190542Z 35026G32KT M01/M04 A3005 RMK A01 T10131037  RH  084%=      5-min Rain = 0
KPD4 190543Z 35025G30KT M01/M04 A3005 RMK A01 T10141038  RH  084%=      5-min Rain = 0
KPD4 190544Z 35026G32KT M01/M04 A3005 RMK A01 T10141038  RH  084%=      5-min Rain = 0
KPD4 190545Z 35024G31KT M01/M04 A3005 RMK A01 T10141038  RH  084%=      5-min Rain = 0
KPD4 190546Z 35025G31KT M01/M04 A3005 RMK A01 T10141038  RH  084%=      5-min Rain = 0
KPD4 190547Z 35023G29KT M02/M04 A3005 RMK A01 T10151037  RH  085%=      5-min Rain = 0
KPD4 190548Z 35023KT M02/M04 A3005 RMK A01 T10151037  RH  085%=      5-min Rain = 0
KPD4 190549Z 36021G26KT M02/M04 A3006 RMK A01 T10151037  RH  085%=      5-min Rain = 0
KPD4 190550Z 35020G26KT M02/M04 A3005 RMK A01 T10151036  RH  085%=      5-min Rain = 0
KPD4 190551Z 35020KT M02/M04 A3006 RMK A01 T10151036  RH  086%=      5-min Rain = 0
KPD4 190552Z 35018KT M02/M04 A3006 RMK A01 T10151036  RH  086%=      5-min Rain = 0
KPD4 190553Z 35023KT M02/M04 A3006 RMK A01 T10151035  RH  086%=      5-min Rain = 0
KPD4 190554Z 35022KT M02/M04 A3006 RMK A01 T10151036  RH  085%=      5-min Rain = 0
KPD4 190555Z 35020KT M02/M04 A3006 RMK A01 T10151037  RH  085%=      5-min Rain = 0
KPD4 190556Z 35025KT M02/M04 A3006 RMK A01 T10151037  RH  085%=      5-min Rain = 0
KPD4 190557Z 35024KT M02/M04 A3006 RMK A01 T10151038  RH  084%=      5-min Rain = 0
KPD4 190558Z 35022G27KT M02/M04 A3006 RMK A01 T10151039  RH  084%=      5-min Rain = 0
KPD4 190559Z 34022KT M02/M04 A3006 RMK A01 T10161039  RH  084%=      5-min Rain = 0

Page generated in 0.0763 seconds.